Observation data for Happy on 10/25/2020      Previous  Date       Current Mesonet Observations  Soil Data  Daily Summary Page  Observations in Plain Language
KHA2 250500Z 15006KT 12/02 A2985 RMK A01 T01180019  RH  051%=      5-min Rain = 0
KHA2 250501Z 15006KT 12/02 A2985 RMK A01 T01160019  RH  051%=      5-min Rain = 0
KHA2 250502Z 15006KT 12/02 A2985 RMK A01 T01150019  RH  052%=      5-min Rain = 0
KHA2 250503Z 15006KT 11/02 A2985 RMK A01 T01140018  RH  052%=      5-min Rain = 0
KHA2 250504Z 15006KT 11/02 A2985 RMK A01 T01120018  RH  052%=      5-min Rain = 0
KHA2 250505Z 15005KT 11/02 A2985 RMK A01 T01110018  RH  053%=      5-min Rain = 0
KHA2 250506Z 15005KT 11/02 A2985 RMK A01 T01090017  RH  053%=      5-min Rain = 0
KHA2 250507Z 15005KT 11/02 A2985 RMK A01 T01080017  RH  054%=      5-min Rain = 0
KHA2 250508Z 14005KT 11/02 A2985 RMK A01 T01070018  RH  054%=      5-min Rain = 0
KHA2 250509Z 14006KT 11/02 A2985 RMK A01 T01070018  RH  054%=      5-min Rain = 0
KHA2 250510Z 14006KT 11/02 A2985 RMK A01 T01060018  RH  055%=      5-min Rain = 0
KHA2 250511Z 14006KT 11/02 A2985 RMK A01 T01060018  RH  055%=      5-min Rain = 0
KHA2 250512Z 14006KT 11/02 A2985 RMK A01 T01050018  RH  055%=      5-min Rain = 0
KHA2 250513Z 14006KT 10/02 A2985 RMK A01 T01040018  RH  055%=      5-min Rain = 0
KHA2 250514Z 13006KT 10/02 A2985 RMK A01 T01040018  RH  055%=      5-min Rain = 0
KHA2 250515Z 12006KT 10/02 A2984 RMK A01 T01030017  RH  055%=      5-min Rain = 0
KHA2 250516Z 12006KT 10/02 A2984 RMK A01 T01020016  RH  055%=      5-min Rain = 0
KHA2 250517Z 13006KT 10/02 A2984 RMK A01 T01010016  RH  055%=      5-min Rain = 0
KHA2 250518Z 13007KT 10/02 A2984 RMK A01 T01000016  RH  056%=      5-min Rain = 0
KHA2 250519Z 13007KT 10/02 A2984 RMK A01 T00990015  RH  056%=      5-min Rain = 0
KHA2 250520Z 13007KT 10/02 A2984 RMK A01 T00990015  RH  056%=      5-min Rain = 0
KHA2 250521Z 13007KT 10/02 A2984 RMK A01 T00990016  RH  056%=      5-min Rain = 0
KHA2 250522Z 13007KT 10/02 A2984 RMK A01 T01000016  RH  056%=      5-min Rain = 0
KHA2 250523Z 13007KT 10/02 A2984 RMK A01 T01000016  RH  056%=      5-min Rain = 0
KHA2 250524Z 13007KT 10/02 A2984 RMK A01 T01000016  RH  056%=      5-min Rain = 0
KHA2 250525Z 13008KT 10/02 A2984 RMK A01 T01000016  RH  056%=      5-min Rain = 0
KHA2 250526Z 13007KT 10/02 A2984 RMK A01 T01000016  RH  056%=      5-min Rain = 0
KHA2 250527Z 13008KT 10/02 A2984 RMK A01 T01000016  RH  056%=      5-min Rain = 0
KHA2 250528Z 13008KT 10/02 A2984 RMK A01 T01000016  RH  056%=      5-min Rain = 0
KHA2 250529Z 13008KT 10/02 A2984 RMK A01 T01010016  RH  056%=      5-min Rain = 0
KHA2 250530Z 14008KT 10/02 A2984 RMK A01 T01010016  RH  056%=      5-min Rain = 0
KHA2 250531Z 13008KT 10/02 A2984 RMK A01 T01000016  RH  056%=      5-min Rain = 0
KHA2 250532Z 14007KT 10/02 A2984 RMK A01 T01010016  RH  056%=      5-min Rain = 0
KHA2 250533Z 14007KT 10/02 A2984 RMK A01 T01010016  RH  056%=      5-min Rain = 0
KHA2 250534Z 14007KT 10/02 A2984 RMK A01 T01000015  RH  056%=      5-min Rain = 0
KHA2 250535Z 14007KT 10/02 A2984 RMK A01 T00990015  RH  056%=      5-min Rain = 0
KHA2 250536Z 13008KT 10/02 A2984 RMK A01 T00990015  RH  056%=      5-min Rain = 0
KHA2 250537Z 13008KT 10/02 A2984 RMK A01 T00980015  RH  056%=      5-min Rain = 0
KHA2 250538Z 13008KT 10/01 A2984 RMK A01 T00970014  RH  056%=      5-min Rain = 0
KHA2 250539Z 13008KT 10/02 A2984 RMK A01 T00970015  RH  056%=      5-min Rain = 0
KHA2 250540Z 12007KT 10/01 A2984 RMK A01 T00970014  RH  057%=      5-min Rain = 0
KHA2 250541Z 12007KT 10/01 A2984 RMK A01 T00970014  RH  057%=      5-min Rain = 0
KHA2 250542Z 12007KT 10/01 A2984 RMK A01 T00960014  RH  057%=      5-min Rain = 0
KHA2 250543Z 11006KT 10/01 A2984 RMK A01 T00960014  RH  057%=      5-min Rain = 0
KHA2 250544Z 11006KT 10/01 A2984 RMK A01 T00950014  RH  057%=      5-min Rain = 0
KHA2 250545Z 11006KT 09/01 A2984 RMK A01 T00940013  RH  057%=      5-min Rain = 0
KHA2 250546Z 10007KT 09/01 A2984 RMK A01 T00930013  RH  057%=      5-min Rain = 0
KHA2 250547Z 10009KT 09/01 A2984 RMK A01 T00930014  RH  058%=      5-min Rain = 0
KHA2 250548Z 10009KT 09/02 A2984 RMK A01 T00940015  RH  058%=      5-min Rain = 0
KHA2 250549Z 11009KT 10/02 A2984 RMK A01 T00950016  RH  058%=      5-min Rain = 0
KHA2 250550Z 10010KT 10/02 A2984 RMK A01 T00960016  RH  058%=      5-min Rain = 0
KHA2 250551Z 10010KT 10/02 A2984 RMK A01 T00960016  RH  057%=      5-min Rain = 0
KHA2 250552Z 10011KT 10/02 A2984 RMK A01 T00970016  RH  057%=      5-min Rain = 0
KHA2 250553Z 10010KT 10/02 A2984 RMK A01 T00960016  RH  057%=      5-min Rain = 0
KHA2 250554Z 10011KT 10/02 A2984 RMK A01 T00950016  RH  058%=      5-min Rain = 0
KHA2 250555Z 10011KT 09/02 A2984 RMK A01 T00940016  RH  058%=      5-min Rain = 0
KHA2 250556Z 11011KT 09/02 A2984 RMK A01 T00930016  RH  058%=      5-min Rain = 0
KHA2 250557Z 11010KT 09/02 A2984 RMK A01 T00920015  RH  058%=      5-min Rain = 0
KHA2 250558Z 12009KT 09/02 A2984 RMK A01 T00920015  RH  058%=      5-min Rain = 0
KHA2 250559Z 12009KT 09/02 A2984 RMK A01 T00920015  RH  059%=      5-min Rain = 0
KHA2 250600Z 11009KT 09/01 A2984 RMK A01 T00910014  RH  059%=      5-min Rain = 0
KHA2 250601Z 11009KT 09/01 A2984 RMK A01 T00900014  RH  059%=      5-min Rain = 0
KHA2 250602Z 11009KT 09/02 A2984 RMK A01 T00900015  RH  059%=      5-min Rain = 0
KHA2 250603Z 11009KT 09/02 A2984 RMK A01 T00900015  RH  059%=      5-min Rain = 0
KHA2 250604Z 11009KT 09/02 A2984 RMK A01 T00890015  RH  059%=      5-min Rain = 0
KHA2 250605Z 11009KT 09/01 A2984 RMK A01 T00880014  RH  060%=      5-min Rain = 0
KHA2 250606Z 10009KT 09/01 A2984 RMK A01 T00880014  RH  060%=      5-min Rain = 0
KHA2 250607Z 10009KT 09/01 A2984 RMK A01 T00870014  RH  060%=      5-min Rain = 0
KHA2 250608Z 10008KT 09/01 A2984 RMK A01 T00870014  RH  060%=      5-min Rain = 0
KHA2 250609Z 10010KT 09/01 A2984 RMK A01 T00860014  RH  061%=      5-min Rain = 0
KHA2 250610Z 10010KT 09/02 A2984 RMK A01 T00860015  RH  061%=      5-min Rain = 0
KHA2 250611Z 10010KT 09/02 A2984 RMK A01 T00850015  RH  061%=      5-min Rain = 0
KHA2 250612Z 10009KT 09/02 A2984 RMK A01 T00850016  RH  062%=      5-min Rain = 0
KHA2 250613Z 10011KT 09/02 A2984 RMK A01 T00850016  RH  062%=      5-min Rain = 0
KHA2 250614Z 11010KT 09/02 A2984 RMK A01 T00850017  RH  062%=      5-min Rain = 0
KHA2 250615Z 10010KT 09/02 A2984 RMK A01 T00850017  RH  062%=      5-min Rain = 0
KHA2 250616Z 11010KT 09/02 A2984 RMK A01 T00850016  RH  062%=      5-min Rain = 0
KHA2 250617Z 11011KT 09/02 A2984 RMK A01 T00850016  RH  062%=      5-min Rain = 0
KHA2 250618Z 11009KT 09/02 A2984 RMK A01 T00850016  RH  062%=      5-min Rain = 0
KHA2 250619Z 11010KT 09/02 A2983 RMK A01 T00850016  RH  062%=      5-min Rain = 0
KHA2 250620Z 11009KT 08/02 A2983 RMK A01 T00840016  RH  062%=      5-min Rain = 0
KHA2 250621Z 11009KT 08/02 A2984 RMK A01 T00840016  RH  062%=      5-min Rain = 0
KHA2 250622Z 11008KT 08/02 A2984 RMK A01 T00840015  RH  062%=      5-min Rain = 0
KHA2 250623Z 11008KT 08/02 A2984 RMK A01 T00840016  RH  062%=      5-min Rain = 0
KHA2 250624Z 11008KT 08/02 A2984 RMK A01 T00830015  RH  062%=      5-min Rain = 0
KHA2 250625Z 11008KT 08/02 A2984 RMK A01 T00820015  RH  063%=      5-min Rain = 0
KHA2 250626Z 11009KT 08/02 A2984 RMK A01 T00820015  RH  063%=      5-min Rain = 0
KHA2 250627Z 10009KT 08/02 A2984 RMK A01 T00820015  RH  063%=      5-min Rain = 0
KHA2 250628Z 10010KT 08/02 A2984 RMK A01 T00820016  RH  063%=      5-min Rain = 0
KHA2 250629Z 10009KT 08/02 A2984 RMK A01 T00820017  RH  063%=      5-min Rain = 0
KHA2 250630Z 10009KT 08/02 A2984 RMK A01 T00820017  RH  064%=      5-min Rain = 0
KHA2 250631Z 10009KT 08/02 A2984 RMK A01 T00810017  RH  064%=      5-min Rain = 0
KHA2 250632Z 11009KT 08/02 A2984 RMK A01 T00810017  RH  064%=      5-min Rain = 0
KHA2 250633Z 11010KT 08/02 A2984 RMK A01 T00800017  RH  064%=      5-min Rain = 0
KHA2 250634Z 11009KT 08/02 A2984 RMK A01 T00800016  RH  064%=      5-min Rain = 0
KHA2 250635Z 12009KT 08/02 A2984 RMK A01 T00790016  RH  064%=      5-min Rain = 0
KHA2 250636Z 12009KT 08/02 A2984 RMK A01 T00780016  RH  065%=      5-min Rain = 0
KHA2 250637Z 12010KT 08/02 A2984 RMK A01 T00780016  RH  065%=      5-min Rain = 0
KHA2 250638Z 12009KT 08/02 A2984 RMK A01 T00780017  RH  065%=      5-min Rain = 0
KHA2 250639Z 12009KT 08/02 A2984 RMK A01 T00780017  RH  065%=      5-min Rain = 0
KHA2 250640Z 12009KT 08/02 A2984 RMK A01 T00780017  RH  065%=      5-min Rain = 0
KHA2 250641Z 12009KT 08/02 A2984 RMK A01 T00780017  RH  066%=      5-min Rain = 0
KHA2 250642Z 12008KT 08/02 A2984 RMK A01 T00780017  RH  066%=      5-min Rain = 0
KHA2 250643Z 12009KT 08/02 A2984 RMK A01 T00770017  RH  066%=      5-min Rain = 0
KHA2 250644Z 12009KT 08/02 A2984 RMK A01 T00770018  RH  066%=      5-min Rain = 0
KHA2 250645Z 12009KT 08/02 A2984 RMK A01 T00770017  RH  066%=      5-min Rain = 0
KHA2 250646Z 12009KT 08/02 A2984 RMK A01 T00760017  RH  066%=      5-min Rain = 0
KHA2 250647Z 12009KT 08/02 A2984 RMK A01 T00760017  RH  066%=      5-min Rain = 0
KHA2 250648Z 12009KT 08/02 A2984 RMK A01 T00760017  RH  066%=      5-min Rain = 0
KHA2 250649Z 11009KT 08/02 A2983 RMK A01 T00750017  RH  066%=      5-min Rain = 0
KHA2 250650Z 11008KT 08/02 A2983 RMK A01 T00750018  RH  067%=      5-min Rain = 0
KHA2 250651Z 11009KT 08/02 A2983 RMK A01 T00750018  RH  067%=      5-min Rain = 0
KHA2 250652Z 11008KT 08/02 A2983 RMK A01 T00750018  RH  067%=      5-min Rain = 0
KHA2 250653Z 11009KT 08/02 A2983 RMK A01 T00760019  RH  067%=      5-min Rain = 0
KHA2 250654Z 11009KT 08/02 A2983 RMK A01 T00750019  RH  067%=      5-min Rain = 0
KHA2 250655Z 11008KT 08/02 A2983 RMK A01 T00750019  RH  068%=      5-min Rain = 0
KHA2 250656Z 11008KT 08/02 A2983 RMK A01 T00750019  RH  068%=      5-min Rain = 0
KHA2 250657Z 11007KT 08/02 A2983 RMK A01 T00750019  RH  068%=      5-min Rain = 0
KHA2 250658Z 12007KT 07/02 A2983 RMK A01 T00740019  RH  068%=      5-min Rain = 0
KHA2 250659Z 11008KT 07/02 A2983 RMK A01 T00740019  RH  068%=      5-min Rain = 0
KHA2 250700Z 12008KT 07/02 A2983 RMK A01 T00740019  RH  068%=      5-min Rain = 0
KHA2 250701Z 12008KT 07/02 A2983 RMK A01 T00740019  RH  068%=      5-min Rain = 0
KHA2 250702Z 12007KT 07/02 A2983 RMK A01 T00740020  RH  068%=      5-min Rain = 0
KHA2 250703Z 12006KT 07/02 A2983 RMK A01 T00740020  RH  069%=      5-min Rain = 0
KHA2 250704Z 12006KT 07/02 A2983 RMK A01 T00730019  RH  069%=      5-min Rain = 0
KHA2 250705Z 13006KT 07/02 A2983 RMK A01 T00730019  RH  069%=      5-min Rain = 0
KHA2 250706Z 13005KT 07/02 A2983 RMK A01 T00730020  RH  069%=      5-min Rain = 0
KHA2 250707Z 13005KT 07/02 A2983 RMK A01 T00730019  RH  069%=      5-min Rain = 0
KHA2 250708Z 13005KT 07/02 A2983 RMK A01 T00720019  RH  069%=      5-min Rain = 0
KHA2 250709Z 12005KT 07/02 A2983 RMK A01 T00720019  RH  069%=      5-min Rain = 0
KHA2 250710Z 12005KT 07/02 A2983 RMK A01 T00720020  RH  069%=      5-min Rain = 0
KHA2 250711Z 12005KT 07/02 A2983 RMK A01 T00720020  RH  069%=      5-min Rain = 0
KHA2 250712Z 11005KT 07/02 A2983 RMK A01 T00720019  RH  069%=      5-min Rain = 0
KHA2 250713Z 11005KT 07/02 A2983 RMK A01 T00720020  RH  070%=      5-min Rain = 0
KHA2 250714Z 11005KT 07/02 A2983 RMK A01 T00710020  RH  070%=      5-min Rain = 0
KHA2 250715Z 11005KT 07/02 A2983 RMK A01 T00710020  RH  070%=      5-min Rain = 0
KHA2 250716Z 11006KT 07/02 A2983 RMK A01 T00710020  RH  070%=      5-min Rain = 0
KHA2 250717Z 11006KT 07/02 A2983 RMK A01 T00710020  RH  070%=      5-min Rain = 0
KHA2 250718Z 12006KT 07/02 A2983 RMK A01 T00700020  RH  070%=      5-min Rain = 0
KHA2 250719Z 12007KT 07/02 A2983 RMK A01 T00700020  RH  070%=      5-min Rain = 0
KHA2 250720Z 12006KT 07/02 A2983 RMK A01 T00690019  RH  071%=      5-min Rain = 0
KHA2 250721Z 12006KT 07/02 A2983 RMK A01 T00690019  RH  071%=      5-min Rain = 0
KHA2 250722Z 12006KT 07/02 A2983 RMK A01 T00680018  RH  071%=      5-min Rain = 0
KHA2 250723Z 12006KT 07/02 A2983 RMK A01 T00670018  RH  071%=      5-min Rain = 0
KHA2 250724Z 12007KT 07/02 A2983 RMK A01 T00670019  RH  071%=      5-min Rain = 0
KHA2 250725Z 12005KT 07/02 A2983 RMK A01 T00670019  RH  071%=      5-min Rain = 0
KHA2 250726Z 12005KT 07/02 A2983 RMK A01 T00660018  RH  071%=      5-min Rain = 0
KHA2 250727Z 12005KT 07/02 A2983 RMK A01 T00650017  RH  071%=      5-min Rain = 0
KHA2 250728Z 13005KT 06/02 A2983 RMK A01 T00640016  RH  071%=      5-min Rain = 0
KHA2 250729Z 13006KT 06/02 A2983 RMK A01 T00640017  RH  072%=      5-min Rain = 0
KHA2 250730Z 13006KT 06/02 A2983 RMK A01 T00640018  RH  072%=      5-min Rain = 0
KHA2 250731Z 13006KT 06/02 A2983 RMK A01 T00640018  RH  072%=      5-min Rain = 0
KHA2 250732Z 13006KT 06/02 A2983 RMK A01 T00640017  RH  072%=      5-min Rain = 0
KHA2 250733Z 14005KT 06/02 A2983 RMK A01 T00630017  RH  072%=      5-min Rain = 0
KHA2 250734Z 13005KT 06/02 A2983 RMK A01 T00630018  RH  073%=      5-min Rain = 0
KHA2 250735Z 13005KT 06/02 A2983 RMK A01 T00630017  RH  073%=      5-min Rain = 0
KHA2 250736Z 13006KT 06/02 A2983 RMK A01 T00620017  RH  073%=      5-min Rain = 0
KHA2 250737Z 13006KT 06/02 A2982 RMK A01 T00620017  RH  073%=      5-min Rain = 0
KHA2 250738Z 13007KT 06/02 A2982 RMK A01 T00610017  RH  073%=      5-min Rain = 0
KHA2 250739Z 13006KT 06/02 A2983 RMK A01 T00610016  RH  073%=      5-min Rain = 0
KHA2 250740Z 13006KT 06/02 A2982 RMK A01 T00600016  RH  073%=      5-min Rain = 0
KHA2 250741Z 13006KT 06/02 A2982 RMK A01 T00600017  RH  074%=      5-min Rain = 0
KHA2 250742Z 12006KT 06/02 A2982 RMK A01 T00600016  RH  073%=      5-min Rain = 0
KHA2 250743Z 12007KT 06/02 A2982 RMK A01 T00600016  RH  073%=      5-min Rain = 0
KHA2 250744Z 12006KT 06/02 A2982 RMK A01 T00590015  RH  074%=      5-min Rain = 0
KHA2 250745Z 12006KT 06/02 A2982 RMK A01 T00580016  RH  074%=      5-min Rain = 0
KHA2 250746Z 12005KT 06/02 A2982 RMK A01 T00580016  RH  074%=      5-min Rain = 0
KHA2 250747Z 12005KT 06/02 A2982 RMK A01 T00580016  RH  074%=      5-min Rain = 0
KHA2 250748Z 13006KT 06/02 A2982 RMK A01 T00570016  RH  075%=      5-min Rain = 0
KHA2 250749Z 12006KT 06/02 A2982 RMK A01 T00580017  RH  075%=      5-min Rain = 0
KHA2 250750Z 12006KT 06/02 A2982 RMK A01 T00580017  RH  075%=      5-min Rain = 0
KHA2 250751Z 12006KT 06/02 A2982 RMK A01 T00580017  RH  075%=      5-min Rain = 0
KHA2 250752Z 12006KT 06/02 A2982 RMK A01 T00580017  RH  075%=      5-min Rain = 0
KHA2 250753Z 12006KT 06/02 A2982 RMK A01 T00580017  RH  075%=      5-min Rain = 0
KHA2 250754Z 12006KT 06/02 A2982 RMK A01 T00590018  RH  075%=      5-min Rain = 0
KHA2 250755Z 12005KT 06/02 A2982 RMK A01 T00580017  RH  075%=      5-min Rain = 0
KHA2 250756Z 12006KT 06/02 A2982 RMK A01 T00580017  RH  075%=      5-min Rain = 0
KHA2 250757Z 12005KT 06/02 A2982 RMK A01 T00590018  RH  075%=      5-min Rain = 0
KHA2 250758Z 12005KT 06/02 A2982 RMK A01 T00580017  RH  075%=      5-min Rain = 0
KHA2 250759Z 12005KT 06/02 A2983 RMK A01 T00580017  RH  075%=      5-min Rain = 0
KHA2 250800Z 11006KT 06/02 A2982 RMK A01 T00580018  RH  075%=      5-min Rain = 0
KHA2 250801Z 11006KT 06/02 A2982 RMK A01 T00580018  RH  075%=      5-min Rain = 0
KHA2 250802Z 11006KT 06/02 A2982 RMK A01 T00580018  RH  075%=      5-min Rain = 0
KHA2 250803Z 12006KT 06/02 A2982 RMK A01 T00590018  RH  075%=      5-min Rain = 0
KHA2 250804Z 12006KT 06/02 A2982 RMK A01 T00590017  RH  075%=      5-min Rain = 0
KHA2 250805Z 12007KT 06/02 A2983 RMK A01 T00590018  RH  075%=      5-min Rain = 0
KHA2 250806Z 12006KT 06/02 A2983 RMK A01 T00590018  RH  075%=      5-min Rain = 0
KHA2 250807Z 12004KT 06/02 A2983 RMK A01 T00590018  RH  075%=      5-min Rain = 0
KHA2 250808Z 12004KT 06/02 A2983 RMK A01 T00580018  RH  075%=      5-min Rain = 0
KHA2 250809Z 12004KT 06/02 A2983 RMK A01 T00580018  RH  075%=      5-min Rain = 0
KHA2 250810Z 11006KT 06/02 A2983 RMK A01 T00580018  RH  075%=      5-min Rain = 0
KHA2 250811Z 11006KT 06/02 A2983 RMK A01 T00580018  RH  076%=      5-min Rain = 0
KHA2 250812Z 11006KT 06/02 A2983 RMK A01 T00580018  RH  076%=      5-min Rain = 0
KHA2 250813Z 11004KT 06/02 A2983 RMK A01 T00580018  RH  076%=      5-min Rain = 0
KHA2 250814Z 12003KT 06/02 A2983 RMK A01 T00580018  RH  075%=      5-min Rain = 0
KHA2 250815Z 13002KT 06/02 A2983 RMK A01 T00570017  RH  075%=      5-min Rain = 0
KHA2 250816Z 12005KT 06/02 A2983 RMK A01 T00570017  RH  075%=      5-min Rain = 0
KHA2 250817Z 12006KT 06/02 A2983 RMK A01 T00570017  RH  075%=      5-min Rain = 0
KHA2 250818Z 12006KT 06/02 A2982 RMK A01 T00560016  RH  075%=      5-min Rain = 0
KHA2 250819Z 12007KT 06/02 A2982 RMK A01 T00560016  RH  076%=      5-min Rain = 0
KHA2 250820Z 12007KT 06/02 A2982 RMK A01 T00550016  RH  076%=      5-min Rain = 0
KHA2 250821Z 13006KT 06/02 A2982 RMK A01 T00550017  RH  076%=      5-min Rain = 0
KHA2 250822Z 15004KT 06/02 A2982 RMK A01 T00550017  RH  076%=      5-min Rain = 0
KHA2 250823Z 16004KT 06/02 A2982 RMK A01 T00550017  RH  077%=      5-min Rain = 0
KHA2 250824Z 16004KT 06/02 A2982 RMK A01 T00550017  RH  076%=      5-min Rain = 0
KHA2 250825Z 15005KT 06/02 A2982 RMK A01 T00550017  RH  076%=      5-min Rain = 0
KHA2 250826Z 14005KT 06/02 A2982 RMK A01 T00550017  RH  076%=      5-min Rain = 0
KHA2 250827Z 13006KT 06/02 A2982 RMK A01 T00550017  RH  077%=      5-min Rain = 0
KHA2 250828Z 14005KT 05/02 A2982 RMK A01 T00540017  RH  077%=      5-min Rain = 0
KHA2 250829Z 15005KT 05/02 A2982 RMK A01 T00540017  RH  077%=      5-min Rain = 0
KHA2 250830Z 15004KT 06/02 A2982 RMK A01 T00550017  RH  077%=      5-min Rain = 0
KHA2 250831Z 14004KT 05/02 A2982 RMK A01 T00540018  RH  077%=      5-min Rain = 0
KHA2 250832Z 14004KT 05/02 A2982 RMK A01 T00540018  RH  077%=      5-min Rain = 0
KHA2 250833Z 15003KT 05/02 A2982 RMK A01 T00540018  RH  077%=      5-min Rain = 0
KHA2 250834Z 16003KT 06/02 A2983 RMK A01 T00550018  RH  077%=      5-min Rain = 0
KHA2 250835Z 12006KT 05/02 A2982 RMK A01 T00540017  RH  077%=      5-min Rain = 0
KHA2 250836Z 11008KT 05/02 A2982 RMK A01 T00540017  RH  077%=      5-min Rain = 0
KHA2 250837Z 11008KT 05/02 A2982 RMK A01 T00540018  RH  078%=      5-min Rain = 0
KHA2 250838Z 11007KT 05/02 A2982 RMK A01 T00540019  RH  078%=      5-min Rain = 0
KHA2 250839Z 11006KT 05/02 A2982 RMK A01 T00540019  RH  078%=      5-min Rain = 0
KHA2 250840Z 12005KT 06/02 A2982 RMK A01 T00550019  RH  078%=      5-min Rain = 0
KHA2 250841Z 12006KT 06/02 A2982 RMK A01 T00550019  RH  078%=      5-min Rain = 0
KHA2 250842Z 12009KT 06/02 A2982 RMK A01 T00550019  RH  078%=      5-min Rain = 0
KHA2 250843Z 13005KT 06/02 A2982 RMK A01 T00550020  RH  078%=      5-min Rain = 0
KHA2 250844Z 15003KT 06/02 A2983 RMK A01 T00560020  RH  078%=      5-min Rain = 0
KHA2 250845Z 14003KT 06/02 A2982 RMK A01 T00560021  RH  078%=      5-min Rain = 0
KHA2 250846Z 13006KT 06/02 A2982 RMK A01 T00570021  RH  078%=      5-min Rain = 0
KHA2 250847Z 11008KT 06/02 A2982 RMK A01 T00570021  RH  078%=      5-min Rain = 0
KHA2 250848Z 11009KT 06/02 A2982 RMK A01 T00570021  RH  078%=      5-min Rain = 0
KHA2 250849Z 12009KT 06/02 A2982 RMK A01 T00570022  RH  078%=      5-min Rain = 0
KHA2 250850Z 11007KT 06/02 A2982 RMK A01 T00580022  RH  078%=      5-min Rain = 0
KHA2 250851Z 12007KT 06/02 A2982 RMK A01 T00580022  RH  078%=      5-min Rain = 0
KHA2 250852Z 11006KT 06/02 A2982 RMK A01 T00580021  RH  077%=      5-min Rain = 0
KHA2 250853Z 11005KT 06/02 A2983 RMK A01 T00570021  RH  078%=      5-min Rain = 0
KHA2 250854Z 10006KT 06/02 A2983 RMK A01 T00570021  RH  078%=      5-min Rain = 0
KHA2 250855Z 10007KT 06/02 A2982 RMK A01 T00570021  RH  078%=      5-min Rain = 0
KHA2 250856Z 10008KT 06/02 A2982 RMK A01 T00570021  RH  078%=      5-min Rain = 0
KHA2 250857Z 10010KT 06/02 A2982 RMK A01 T00560020  RH  078%=      5-min Rain = 0
KHA2 250858Z 11009KT 06/02 A2983 RMK A01 T00560021  RH  078%=      5-min Rain = 0
KHA2 250859Z 11009KT 06/02 A2983 RMK A01 T00560020  RH  078%=      5-min Rain = 0
KHA2 250900Z 10010KT 06/02 A2983 RMK A01 T00550019  RH  078%=      5-min Rain = 0
KHA2 250901Z 11008KT 06/02 A2983 RMK A01 T00550019  RH  078%=      5-min Rain = 0
KHA2 250902Z 11010KT 05/02 A2983 RMK A01 T00540019  RH  078%=      5-min Rain = 0
KHA2 250903Z 11010KT 05/02 A2983 RMK A01 T00540019  RH  078%=      5-min Rain = 0
KHA2 250904Z 11009KT 05/02 A2983 RMK A01 T00530019  RH  078%=      5-min Rain = 0
KHA2 250905Z 12009KT 05/02 A2983 RMK A01 T00530019  RH  079%=      5-min Rain = 0
KHA2 250906Z 11007KT 05/02 A2983 RMK A01 T00530019  RH  079%=      5-min Rain = 0
KHA2 250907Z 10006KT 05/02 A2983 RMK A01 T00530019  RH  079%=      5-min Rain = 0
KHA2 250908Z 10007KT 05/02 A2983 RMK A01 T00520020  RH  079%=      5-min Rain = 0
KHA2 250909Z 10006KT 05/02 A2983 RMK A01 T00520020  RH  080%=      5-min Rain = 0
KHA2 250910Z 10006KT 05/02 A2983 RMK A01 T00520020  RH  080%=      5-min Rain = 0
KHA2 250911Z 10007KT 05/02 A2983 RMK A01 T00530021  RH  080%=      5-min Rain = 0
KHA2 250912Z 10006KT 05/02 A2983 RMK A01 T00520021  RH  080%=      5-min Rain = 0
KHA2 250913Z 10007KT 05/02 A2983 RMK A01 T00530021  RH  080%=      5-min Rain = 0
KHA2 250914Z 09008KT 05/02 A2983 RMK A01 T00530021  RH  080%=      5-min Rain = 0
KHA2 250915Z 09006KT 05/02 A2983 RMK A01 T00530021  RH  080%=      5-min Rain = 0
KHA2 250916Z 09006KT 05/02 A2983 RMK A01 T00530021  RH  080%=      5-min Rain = 0
KHA2 250917Z 09006KT 05/02 A2984 RMK A01 T00530020  RH  079%=      5-min Rain = 0
KHA2 250918Z 09006KT 05/02 A2984 RMK A01 T00520020  RH  079%=      5-min Rain = 0
KHA2 250919Z 09008KT 05/02 A2983 RMK A01 T00530020  RH  079%=      5-min Rain = 0
KHA2 250920Z 09007KT 05/02 A2984 RMK A01 T00530020  RH  080%=      5-min Rain = 0
KHA2 250921Z 09008KT 05/02 A2984 RMK A01 T00520020  RH  080%=      5-min Rain = 0
KHA2 250922Z 09007KT 05/02 A2983 RMK A01 T00520020  RH  080%=      5-min Rain = 0
KHA2 250923Z 09007KT 05/02 A2983 RMK A01 T00520021  RH  081%=      5-min Rain = 0
KHA2 250924Z 09007KT 05/02 A2983 RMK A01 T00510021  RH  081%=      5-min Rain = 0
KHA2 250925Z 09008KT 05/02 A2983 RMK A01 T00510021  RH  081%=      5-min Rain = 0
KHA2 250926Z 10009KT 05/02 A2983 RMK A01 T00510021  RH  081%=      5-min Rain = 0
KHA2 250927Z 10009KT 05/02 A2983 RMK A01 T00510021  RH  081%=      5-min Rain = 0
KHA2 250928Z 09009KT 05/02 A2983 RMK A01 T00510021  RH  081%=      5-min Rain = 0
KHA2 250929Z 09008KT 05/02 A2983 RMK A01 T00510021  RH  081%=      5-min Rain = 0
KHA2 250930Z 09010KT 05/02 A2983 RMK A01 T00510021  RH  081%=      5-min Rain = 0
KHA2 250931Z 09008KT 05/02 A2983 RMK A01 T00510021  RH  081%=      5-min Rain = 0
KHA2 250932Z 09007KT 05/02 A2983 RMK A01 T00510021  RH  081%=      5-min Rain = 0
KHA2 250933Z 09007KT 05/02 A2983 RMK A01 T00510021  RH  081%=      5-min Rain = 0
KHA2 250934Z 09006KT 05/02 A2983 RMK A01 T00510021  RH  081%=      5-min Rain = 0
KHA2 250935Z 09007KT 05/02 A2983 RMK A01 T00510021  RH  081%=      5-min Rain = 0
KHA2 250936Z 09008KT 05/02 A2983 RMK A01 T00500021  RH  081%=      5-min Rain = 0
KHA2 250937Z 09008KT 05/02 A2983 RMK A01 T00500021  RH  081%=      5-min Rain = 0
KHA2 250938Z 09009KT 05/02 A2983 RMK A01 T00500021  RH  082%=      5-min Rain = 0
KHA2 250939Z 08008KT 05/02 A2984 RMK A01 T00490021  RH  082%=      5-min Rain = 0
KHA2 250940Z 08007KT 05/02 A2984 RMK A01 T00480021  RH  082%=      5-min Rain = 0
KHA2 250941Z 08007KT 05/02 A2984 RMK A01 T00490021  RH  083%=      5-min Rain = 0
KHA2 250942Z 08008KT 05/02 A2984 RMK A01 T00480021  RH  083%=      5-min Rain = 0
KHA2 250943Z 08008KT 05/02 A2984 RMK A01 T00480022  RH  083%=      5-min Rain = 0
KHA2 250944Z 08007KT 05/02 A2984 RMK A01 T00480022  RH  084%=      5-min Rain = 0
KHA2 250945Z 09007KT 05/02 A2984 RMK A01 T00480023  RH  084%=      5-min Rain = 0
KHA2 250946Z 09008KT 05/02 A2984 RMK A01 T00470023  RH  084%=      5-min Rain = 0
KHA2 250947Z 08006KT 05/02 A2984 RMK A01 T00470023  RH  085%=      5-min Rain = 0
KHA2 250948Z 09007KT 05/02 A2984 RMK A01 T00470023  RH  085%=      5-min Rain = 0
KHA2 250949Z 09006KT 05/02 A2984 RMK A01 T00470023  RH  085%=      5-min Rain = 0
KHA2 250950Z 09004KT 05/02 A2984 RMK A01 T00470024  RH  085%=      5-min Rain = 0
KHA2 250951Z 08005KT 05/02 A2984 RMK A01 T00460023  RH  085%=      5-min Rain = 0
KHA2 250952Z 08007KT 05/02 A2984 RMK A01 T00460023  RH  085%=      5-min Rain = 0
KHA2 250953Z 07009KT 05/02 A2985 RMK A01 T00470024  RH  085%=      5-min Rain = 0
KHA2 250954Z 08008KT 05/03 A2985 RMK A01 T00470025  RH  086%=      5-min Rain = 0
KHA2 250955Z 10007KT 05/03 A2984 RMK A01 T00460025  RH  086%=      5-min Rain = 0
KHA2 250956Z 11008KT 05/03 A2984 RMK A01 T00470025  RH  086%=      5-min Rain = 0
KHA2 250957Z 12006KT 05/03 A2984 RMK A01 T00470025  RH  086%=      5-min Rain = 0
KHA2 250958Z 12004KT 05/02 A2984 RMK A01 T00460024  RH  085%=      5-min Rain = 0
KHA2 250959Z 10004KT 05/02 A2984 RMK A01 T00460024  RH  085%=      5-min Rain = 0
KHA2 251000Z 05005KT 05/02 A2985 RMK A01 T00460024  RH  086%=      5-min Rain = 0
KHA2 251001Z 06007KT 05/02 A2985 RMK A01 T00460024  RH  086%=      5-min Rain = 0
KHA2 251002Z 08007KT 05/03 A2985 RMK A01 T00460025  RH  086%=      5-min Rain = 0
KHA2 251003Z 09008KT 05/03 A2984 RMK A01 T00460025  RH  086%=      5-min Rain = 0
KHA2 251004Z 09007KT 05/03 A2984 RMK A01 T00460025  RH  086%=      5-min Rain = 0
KHA2 251005Z 10006KT 05/03 A2984 RMK A01 T00460025  RH  086%=      5-min Rain = 0
KHA2 251006Z 11007KT 05/03 A2984 RMK A01 T00460025  RH  086%=      5-min Rain = 0
KHA2 251007Z 09006KT 05/03 A2984 RMK A01 T00460025  RH  086%=      5-min Rain = 0
KHA2 251008Z 07005KT 05/03 A2985 RMK A01 T00450025  RH  087%=      5-min Rain = 0
KHA2 251009Z 09004KT 05/03 A2985 RMK A01 T00450025  RH  087%=      5-min Rain = 0
KHA2 251010Z 12005KT 05/03 A2984 RMK A01 T00450025  RH  087%=      5-min Rain = 0
KHA2 251011Z 12005KT 05/03 A2984 RMK A01 T00450025  RH  087%=      5-min Rain = 0
KHA2 251012Z 12006KT 05/02 A2984 RMK A01 T00450024  RH  087%=      5-min Rain = 0
KHA2 251013Z 12007KT 04/02 A2984 RMK A01 T00440024  RH  087%=      5-min Rain = 0
KHA2 251014Z 11007KT 04/02 A2984 RMK A01 T00440024  RH  087%=      5-min Rain = 0
KHA2 251015Z 11007KT 04/02 A2984 RMK A01 T00430023  RH  087%=      5-min Rain = 0
KHA2 251016Z 10007KT 04/02 A2984 RMK A01 T00430023  RH  087%=      5-min Rain = 0
KHA2 251017Z 10006KT 04/02 A2984 RMK A01 T00430024  RH  088%=      5-min Rain = 0
KHA2 251018Z 10007KT 04/03 A2984 RMK A01 T00440025  RH  088%=      5-min Rain = 0
KHA2 251019Z 09007KT 04/02 A2984 RMK A01 T00430024  RH  087%=      5-min Rain = 0
KHA2 251020Z 09007KT 04/02 A2984 RMK A01 T00440024  RH  087%=      5-min Rain = 0
KHA2 251021Z 09007KT 04/03 A2984 RMK A01 T00440025  RH  087%=      5-min Rain = 0
KHA2 251022Z 10006KT 04/03 A2984 RMK A01 T00440025  RH  087%=      5-min Rain = 0
KHA2 251023Z 12005KT 04/02 A2984 RMK A01 T00440024  RH  087%=      5-min Rain = 0
KHA2 251024Z 13005KT 04/02 A2984 RMK A01 T00440024  RH  087%=      5-min Rain = 0
KHA2 251025Z 13005KT 04/02 A2984 RMK A01 T00440024  RH  087%=      5-min Rain = 0
KHA2 251026Z 12004KT 04/02 A2985 RMK A01 T00430023  RH  087%=      5-min Rain = 0
KHA2 251027Z 09005KT 04/02 A2985 RMK A01 T00430023  RH  087%=      5-min Rain = 0
KHA2 251028Z 08009KT 04/02 A2985 RMK A01 T00430023  RH  087%=      5-min Rain = 0
KHA2 251029Z 09009KT 04/02 A2985 RMK A01 T00430024  RH  088%=      5-min Rain = 0
KHA2 251030Z 09008KT 04/03 A2985 RMK A01 T00430025  RH  088%=      5-min Rain = 0
KHA2 251031Z 10005KT 04/02 A2985 RMK A01 T00430024  RH  088%=      5-min Rain = 0
KHA2 251032Z 10005KT 04/02 A2985 RMK A01 T00430024  RH  087%=      5-min Rain = 0
KHA2 251033Z 08005KT 04/02 A2985 RMK A01 T00430024  RH  087%=      5-min Rain = 0
KHA2 251034Z 05006KT 04/02 A2986 RMK A01 T00430023  RH  087%=      5-min Rain = 0
KHA2 251035Z 05008KT 04/02 A2986 RMK A01 T00420023  RH  087%=      5-min Rain = 0
KHA2 251036Z 06007KT 04/02 A2985 RMK A01 T00420024  RH  088%=      5-min Rain = 0
KHA2 251037Z 09007KT 04/02 A2985 RMK A01 T00420023  RH  088%=      5-min Rain = 0
KHA2 251038Z 11006KT 04/02 A2985 RMK A01 T00410024  RH  088%=      5-min Rain = 0
KHA2 251039Z 11007KT 04/02 A2984 RMK A01 T00410024  RH  089%=      5-min Rain = 0
KHA2 251040Z 11006KT 04/02 A2984 RMK A01 T00400023  RH  089%=      5-min Rain = 0
KHA2 251041Z 09007KT 04/02 A2985 RMK A01 T00400023  RH  089%=      5-min Rain = 0
KHA2 251042Z 07007KT 04/02 A2986 RMK A01 T00400024  RH  089%=      5-min Rain = 0
KHA2 251043Z 07008KT 04/02 A2986 RMK A01 T00400024  RH  090%=      5-min Rain = 0
KHA2 251044Z 06008KT 04/03 A2986 RMK A01 T00400025  RH  090%=      5-min Rain = 0
KHA2 251045Z 06006KT 04/03 A2986 RMK A01 T00400025  RH  090%=      5-min Rain = 0
KHA2 251046Z 08005KT 04/02 A2986 RMK A01 T00390023  RH  089%=      5-min Rain = 0
KHA2 251047Z 12005KT 04/02 A2985 RMK A01 T00390023  RH  089%=      5-min Rain = 0
KHA2 251048Z 14006KT 04/02 A2985 RMK A01 T00390024  RH  090%=      5-min Rain = 0
KHA2 251049Z 13006KT 04/02 A2985 RMK A01 T00390024  RH  090%=      5-min Rain = 0
KHA2 251050Z 12006KT 04/02 A2985 RMK A01 T00390024  RH  090%=      5-min Rain = 0
KHA2 251051Z 12007KT 04/02 A2985 RMK A01 T00390024  RH  090%=      5-min Rain = 0
KHA2 251052Z 11007KT 04/03 A2985 RMK A01 T00390025  RH  090%=      5-min Rain = 0
KHA2 251053Z 10007KT 04/03 A2985 RMK A01 T00390025  RH  090%=      5-min Rain = 0
KHA2 251054Z 09007KT 04/03 A2985 RMK A01 T00390025  RH  090%=      5-min Rain = 0
KHA2 251055Z 10006KT 04/03 A2985 RMK A01 T00390025  RH  091%=      5-min Rain = 0
KHA2 251056Z 11008KT 04/03 A2985 RMK A01 T00390025  RH  091%=      5-min Rain = 0
KHA2 251057Z 11006KT 04/03 A2985 RMK A01 T00390026  RH  091%=      5-min Rain = 0
KHA2 251058Z 09005KT 04/03 A2986 RMK A01 T00390025  RH  091%=      5-min Rain = 0
KHA2 251059Z 08007KT 04/03 A2986 RMK A01 T00390026  RH  091%=      5-min Rain = 0
KHA2 251100Z 07007KT 04/03 A2986 RMK A01 T00390026  RH  091%=      5-min Rain = 0
KHA2 251101Z 08008KT 04/03 A2986 RMK A01 T00390026  RH  091%=      5-min Rain = 0
KHA2 251102Z 08007KT 04/03 A2986 RMK A01 T00390025  RH  091%=      5-min Rain = 0
KHA2 251103Z 08006KT 04/03 A2986 RMK A01 T00390026  RH  091%=      5-min Rain = 0
KHA2 251104Z 08007KT 04/03 A2986 RMK A01 T00390026  RH  091%=      5-min Rain = 0
KHA2 251105Z 07007KT 04/03 A2986 RMK A01 T00390025  RH  091%=      5-min Rain = 0
KHA2 251106Z 06007KT 04/03 A2987 RMK A01 T00380026  RH  091%=      5-min Rain = 0
KHA2 251107Z 05007KT 04/03 A2987 RMK A01 T00370025  RH  091%=      5-min Rain = 0
KHA2 251108Z 05006KT 04/02 A2987 RMK A01 T00370024  RH  091%=      5-min Rain = 0
KHA2 251109Z 07005KT 04/02 A2987 RMK A01 T00360022  RH  091%=      5-min Rain = 0
KHA2 251110Z 08004KT 04/02 A2987 RMK A01 T00350021  RH  091%=      5-min Rain = 0
KHA2 251111Z 07006KT 04/02 A2987 RMK A01 T00350022  RH  091%=      5-min Rain = 0
KHA2 251112Z 06008KT 04/02 A2987 RMK A01 T00350023  RH  092%=      5-min Rain = 0
KHA2 251113Z 06009KT 04/02 A2987 RMK A01 T00350023  RH  092%=      5-min Rain = 0
KHA2 251114Z 06007KT 04/02 A2987 RMK A01 T00350024  RH  093%=      5-min Rain = 0
KHA2 251115Z 07006KT 03/02 A2987 RMK A01 T00340023  RH  093%=      5-min Rain = 0
KHA2 251116Z 07006KT 03/02 A2987 RMK A01 T00340023  RH  093%=      5-min Rain = 0
KHA2 251117Z 07007KT 03/02 A2987 RMK A01 T00340023  RH  093%=      5-min Rain = 0
KHA2 251118Z 08007KT 03/02 A2987 RMK A01 T00340024  RH  093%=      5-min Rain = 0
KHA2 251119Z 10006KT 03/02 A2987 RMK A01 T00340024  RH  094%=      5-min Rain = 0
KHA2 251120Z 09006KT 03/03 A2987 RMK A01 T00340025  RH  094%=      5-min Rain = 0
KHA2 251121Z 08007KT 03/03 A2987 RMK A01 T00340026  RH  094%=      5-min Rain = 0
KHA2 251122Z 08007KT 04/03 A2987 RMK A01 T00350027  RH  094%=      5-min Rain = 0
KHA2 251123Z 07007KT 04/03 A2987 RMK A01 T00350027  RH  095%=      5-min Rain = 0
KHA2 251124Z 09006KT 04/03 A2988 RMK A01 T00350027  RH  095%=      5-min Rain = 0
KHA2 251125Z 08005KT 04/03 A2988 RMK A01 T00350027  RH  095%=      5-min Rain = 0
KHA2 251126Z 08007KT 04/03 A2988 RMK A01 T00350027  RH  095%=      5-min Rain = 0
KHA2 251127Z 08007KT 04/03 A2988 RMK A01 T00350028  RH  095%=      5-min Rain = 0
KHA2 251128Z 08006KT 04/03 A2988 RMK A01 T00360028  RH  095%=      5-min Rain = 0
KHA2 251129Z 07008KT 04/03 A2988 RMK A01 T00360029  RH  095%=      5-min Rain = 0
KHA2 251130Z 07009KT 04/03 A2988 RMK A01 T00360029  RH  095%=      5-min Rain = 0
KHA2 251131Z 05008KT 04/03 A2988 RMK A01 T00370030  RH  095%=      5-min Rain = 0
KHA2 251132Z 06008KT 04/03 A2989 RMK A01 T00370030  RH  095%=      5-min Rain = 0
KHA2 251133Z 06006KT 04/03 A2989 RMK A01 T00370029  RH  095%=      5-min Rain = 0
KHA2 251134Z 06008KT 04/03 A2989 RMK A01 T00360029  RH  095%=      5-min Rain = 0
KHA2 251135Z 06008KT 04/03 A2989 RMK A01 T00360029  RH  095%=      5-min Rain = 0
KHA2 251136Z 07008KT 04/03 A2989 RMK A01 T00370030  RH  095%=      5-min Rain = 0
KHA2 251137Z 05007KT 04/03 A2989 RMK A01 T00360030  RH  095%=      5-min Rain = 0
KHA2 251138Z 04008KT 04/03 A2989 RMK A01 T00370030  RH  095%=      5-min Rain = 0
KHA2 251139Z 03008KT 04/03 A299 RMK A01 T00370030  RH  095%=      5-min Rain = 0
KHA2 251140Z 04009KT 04/03 A299 RMK A01 T00380031  RH  095%=      5-min Rain = 0
KHA2 251141Z 04008KT 04/03 A299 RMK A01 T00380032  RH  096%=      5-min Rain = 0
KHA2 251142Z 03009KT 04/03 A299 RMK A01 T00380032  RH  096%=      5-min Rain = 0
KHA2 251143Z 03012KT 04/03 A299 RMK A01 T00390032  RH  096%=      5-min Rain = 0
KHA2 251144Z 04011KT 04/03 A2991 RMK A01 T00390033  RH  096%=      5-min Rain = 0
KHA2 251145Z 03010KT 04/03 A2991 RMK A01 T00390033  RH  096%=      5-min Rain = 0
KHA2 251146Z 04009KT 04/03 A2991 RMK A01 T00400034  RH  096%=      5-min Rain = 0
KHA2 251147Z 04011KT 04/03 A299 RMK A01 T00400034  RH  096%=      5-min Rain = 0
KHA2 251148Z 04011KT 04/04 A299 RMK A01 T00410035  RH  096%=      5-min Rain = 0
KHA2 251149Z 03012KT 04/04 A2991 RMK A01 T00410035  RH  096%=      5-min Rain = 0
KHA2 251150Z 02013KT 04/04 A2991 RMK A01 T00410035  RH  096%=      5-min Rain = 0
KHA2 251151Z 03012KT 04/04 A2991 RMK A01 T00420035  RH  095%=      5-min Rain = 0
KHA2 251152Z 02011KT 04/03 A2991 RMK A01 T00410034  RH  095%=      5-min Rain = 0
KHA2 251153Z 02013KT 04/03 A2991 RMK A01 T00420034  RH  095%=      5-min Rain = 0
KHA2 251154Z 03012KT 04/03 A2992 RMK A01 T00420034  RH  095%=      5-min Rain = 0
KHA2 251155Z 03009KT 04/03 A2992 RMK A01 T00410034  RH  095%=      5-min Rain = 0
KHA2 251156Z 03010KT 04/03 A2992 RMK A01 T00420034  RH  095%=      5-min Rain = 0
KHA2 251157Z 03011KT 04/04 A2992 RMK A01 T00420035  RH  095%=      5-min Rain = 0
KHA2 251158Z 03012KT 04/04 A2991 RMK A01 T00420035  RH  095%=      5-min Rain = 0
KHA2 251159Z 03012KT 04/04 A2991 RMK A01 T00420035  RH  095%=      5-min Rain = 0
KHA2 251200Z 03011KT 04/04 A2991 RMK A01 T00430035  RH  095%=      5-min Rain = 0
KHA2 251201Z 03012KT 04/04 A2991 RMK A01 T00420035  RH  095%=      5-min Rain = 0
KHA2 251202Z 03011KT 04/04 A2992 RMK A01 T00430035  RH  095%=      5-min Rain = 0
KHA2 251203Z 03011KT 04/04 A2991 RMK A01 T00430035  RH  095%=      5-min Rain = 0
KHA2 251204Z 03010KT 04/04 A2991 RMK A01 T00430035  RH  095%=      5-min Rain = 0
KHA2 251205Z 03010KT 04/04 A2991 RMK A01 T00430035  RH  094%=      5-min Rain = 0
KHA2 251206Z 03009KT 04/04 A2991 RMK A01 T00430035  RH  094%=      5-min Rain = 0
KHA2 251207Z 03010KT 04/04 A2991 RMK A01 T00440035  RH  094%=      5-min Rain = 0
KHA2 251208Z 03010KT 05/04 A2992 RMK A01 T00450036  RH  094%=      5-min Rain = 0
KHA2 251209Z 03010KT 04/04 A2992 RMK A01 T00440035  RH  094%=      5-min Rain = 0
KHA2 251210Z 03013KT 05/04 A2992 RMK A01 T00460037  RH  094%=      5-min Rain = 0
KHA2 251211Z 03014KT 05/04 A2992 RMK A01 T00460037  RH  094%=      5-min Rain = 0
KHA2 251212Z 03012KT 05/04 A2992 RMK A01 T00460038  RH  095%=      5-min Rain = 0
KHA2 251213Z 02013KT 05/04 A2992 RMK A01 T00460038  RH  095%=      5-min Rain = 0
KHA2 251214Z 03012KT 05/04 A2992 RMK A01 T00460039  RH  095%=      5-min Rain = 0
KHA2 251215Z 03013KT 05/04 A2992 RMK A01 T00460039  RH  096%=      5-min Rain = 0
KHA2 251216Z 03013KT 05/04 A2993 RMK A01 T00460039  RH  096%=      5-min Rain = 0
KHA2 251217Z 03014KT 05/04 A2993 RMK A01 T00460040  RH  096%=      5-min Rain = 0
KHA2 251218Z 03014KT 05/04 A2993 RMK A01 T00460040  RH  096%=      5-min Rain = 0
KHA2 251219Z 03015KT 05/04 A2993 RMK A01 T00460040  RH  096%=      5-min Rain = 0
KHA2 251220Z 03014KT 05/04 A2993 RMK A01 T00460040  RH  096%=      5-min Rain = 0
KHA2 251221Z 03012KT 05/04 A2993 RMK A01 T00460040  RH  096%=      5-min Rain = 0
KHA2 251222Z 03012KT 05/04 A2993 RMK A01 T00460041  RH  097%=      5-min Rain = 0
KHA2 251223Z 03014KT 05/04 A2993 RMK A01 T00470041  RH  097%=      5-min Rain = 0
KHA2 251224Z 03013KT 05/04 A2993 RMK A01 T00470041  RH  096%=      5-min Rain = 0
KHA2 251225Z 03014KT 05/04 A2993 RMK A01 T00470041  RH  096%=      5-min Rain = 0
KHA2 251226Z 03014KT 05/04 A2993 RMK A01 T00470041  RH  096%=      5-min Rain = 0
KHA2 251227Z 03012KT 05/04 A2993 RMK A01 T00470041  RH  096%=      5-min Rain = 0
KHA2 251228Z 03013KT 05/04 A2993 RMK A01 T00480041  RH  096%=      5-min Rain = 0
KHA2 251229Z 04012KT 05/04 A2994 RMK A01 T00480042  RH  096%=      5-min Rain = 0
KHA2 251230Z 03014KT 05/04 A2993 RMK A01 T00480041  RH  095%=      5-min Rain = 0
KHA2 251231Z 03013KT 05/04 A2994 RMK A01 T00480041  RH  095%=      5-min Rain = 0
KHA2 251232Z 03012KT 05/04 A2994 RMK A01 T00480041  RH  095%=      5-min Rain = 0
KHA2 251233Z 02013KT 05/04 A2994 RMK A01 T00490041  RH  095%=      5-min Rain = 0
KHA2 251234Z 03012KT 05/04 A2993 RMK A01 T00490041  RH  095%=      5-min Rain = 0
KHA2 251235Z 03012KT 05/04 A2993 RMK A01 T00490041  RH  094%=      5-min Rain = 0
KHA2 251236Z 03013KT 05/04 A2993 RMK A01 T00500041  RH  094%=      5-min Rain = 0
KHA2 251237Z 03013KT 05/04 A2994 RMK A01 T00500041  RH  094%=      5-min Rain = 0
KHA2 251238Z 02014KT 05/04 A2993 RMK A01 T00500040  RH  093%=      5-min Rain = 0
KHA2 251239Z 02014KT 05/04 A2994 RMK A01 T00500040  RH  093%=      5-min Rain = 0
KHA2 251240Z 02014KT 05/04 A2994 RMK A01 T00500040  RH  093%=      5-min Rain = 0
KHA2 251241Z 02013KT 05/04 A2994 RMK A01 T00510040  RH  093%=      5-min Rain = 0
KHA2 251242Z 03015KT 05/04 A2994 RMK A01 T00510040  RH  093%=      5-min Rain = 0
KHA2 251243Z 03015KT 05/04 A2994 RMK A01 T00510040  RH  093%=      5-min Rain = 0
KHA2 251244Z 03016KT 05/04 A2994 RMK A01 T00510040  RH  093%=      5-min Rain = 0
KHA2 251245Z 03013KT 05/04 A2994 RMK A01 T00510040  RH  093%=      5-min Rain = 0
KHA2 251246Z 03013KT 05/04 A2994 RMK A01 T00510040  RH  093%=      5-min Rain = 0
KHA2 251247Z 03012KT 05/04 A2994 RMK A01 T00520040  RH  092%=      5-min Rain = 0
KHA2 251248Z 03013KT 05/04 A2994 RMK A01 T00520040  RH  092%=      5-min Rain = 0
KHA2 251249Z 03012KT 05/04 A2994 RMK A01 T00520040  RH  092%=      5-min Rain = 0
KHA2 251250Z 02012G18KT 05/04 A2994 RMK A01 T00520040  RH  092%=      5-min Rain = 0
KHA2 251251Z 02016KT 05/04 A2994 RMK A01 T00520040  RH  092%=      5-min Rain = 0
KHA2 251252Z 02015KT 05/04 A2994 RMK A01 T00510040  RH  092%=      5-min Rain = 0
KHA2 251253Z 02016KT 05/04 A2994 RMK A01 T00500040  RH  093%=      5-min Rain = 0
KHA2 251254Z 02015KT 05/04 A2994 RMK A01 T00500040  RH  093%=      5-min Rain = 0
KHA2 251255Z 02014KT 05/04 A2994 RMK A01 T00500040  RH  094%=      5-min Rain = 0
KHA2 251256Z 02015KT 05/04 A2994 RMK A01 T00490040  RH  094%=      5-min Rain = 0
KHA2 251257Z 02014KT 05/04 A2994 RMK A01 T00480040  RH  094%=      5-min Rain = 0
KHA2 251258Z 02014KT 05/04 A2994 RMK A01 T00480040  RH  095%=      5-min Rain = 0
KHA2 251259Z 02014KT 05/04 A2994 RMK A01 T00470040  RH  095%=      5-min Rain = 0
KHA2 251300Z 03015KT 05/04 A2994 RMK A01 T00470040  RH  095%=      5-min Rain = 0
KHA2 251301Z 03015KT 05/04 A2994 RMK A01 T00470040  RH  096%=      5-min Rain = 0
KHA2 251302Z 03015KT 05/04 A2994 RMK A01 T00470041  RH  096%=      5-min Rain = 0
KHA2 251303Z 02014KT 05/04 A2995 RMK A01 T00470041  RH  096%=      5-min Rain = 0
KHA2 251304Z 02013KT 05/04 A2994 RMK A01 T00470041  RH  096%=      5-min Rain = 0
KHA2 251305Z 03013KT 05/04 A2994 RMK A01 T00470041  RH  096%=      5-min Rain = 0
KHA2 251306Z 03016KT 05/04 A2994 RMK A01 T00470041  RH  096%=      5-min Rain = 0
KHA2 251307Z 03014KT 05/04 A2994 RMK A01 T00470041  RH  096%=      5-min Rain = 0
KHA2 251308Z 03014KT 05/04 A2994 RMK A01 T00470042  RH  096%=      5-min Rain = 0
KHA2 251309Z 03015KT 05/04 A2994 RMK A01 T00480042  RH  096%=      5-min Rain = 0
KHA2 251310Z 03016KT 05/04 A2994 RMK A01 T00470042  RH  096%=      5-min Rain = 0
KHA2 251311Z 03014KT 05/04 A2994 RMK A01 T00470042  RH  096%=      5-min Rain = 0
KHA2 251312Z 03011KT 05/04 A2994 RMK A01 T00470042  RH  096%=      5-min Rain = 0
KHA2 251313Z 03012KT 05/04 A2994 RMK A01 T00480043  RH  096%=      5-min Rain = 0
KHA2 251314Z 03014KT 05/04 A2994 RMK A01 T00480043  RH  096%=      5-min Rain = 0
KHA2 251315Z 03013KT 05/04 A2994 RMK A01 T00480042  RH  096%=      5-min Rain = 0
KHA2 251316Z 03012KT 05/04 A2994 RMK A01 T00480042  RH  096%=      5-min Rain = 0
KHA2 251317Z 03012KT 05/04 A2995 RMK A01 T00480043  RH  096%=      5-min Rain = 0
KHA2 251318Z 03012KT 05/04 A2995 RMK A01 T00490043  RH  096%=      5-min Rain = 0
KHA2 251319Z 03012KT 05/04 A2995 RMK A01 T00480043  RH  096%=      5-min Rain = 0
KHA2 251320Z 03015KT 05/04 A2995 RMK A01 T00480043  RH  096%=      5-min Rain = 0
KHA2 251321Z 03014KT 05/04 A2995 RMK A01 T00480043  RH  096%=      5-min Rain = 0
KHA2 251322Z 03015KT 05/04 A2995 RMK A01 T00480042  RH  096%=      5-min Rain = 0
KHA2 251323Z 03014KT 05/04 A2995 RMK A01 T00490043  RH  096%=      5-min Rain = 0
KHA2 251324Z 03014KT 05/04 A2995 RMK A01 T00480043  RH  096%=      5-min Rain = 0
KHA2 251325Z 03014KT 05/04 A2996 RMK A01 T00480043  RH  096%=      5-min Rain = 0
KHA2 251326Z 03012KT 05/04 A2996 RMK A01 T00490043  RH  096%=      5-min Rain = 0
KHA2 251327Z 04013KT 05/04 A2996 RMK A01 T00490044  RH  097%=      5-min Rain = 0
KHA2 251328Z 04015KT 05/04 A2996 RMK A01 T00490044  RH  097%=      5-min Rain = 0
KHA2 251329Z 04016KT 05/04 A2996 RMK A01 T00490044  RH  097%=      5-min Rain = 0
KHA2 251330Z 04016KT 05/04 A2996 RMK A01 T00490044  RH  097%=      5-min Rain = 0
KHA2 251331Z 04015KT 05/04 A2996 RMK A01 T00480044  RH  097%=      5-min Rain = 0
KHA2 251332Z 03014KT 05/04 A2996 RMK A01 T00480044  RH  097%=      5-min Rain = 0
KHA2 251333Z 04016KT 05/04 A2996 RMK A01 T00480044  RH  097%=      5-min Rain = 0
KHA2 251334Z 04015KT 05/04 A2996 RMK A01 T00480044  RH  097%=      5-min Rain = 0
KHA2 251335Z 04012KT 05/04 A2996 RMK A01 T00480044  RH  097%=      5-min Rain = 0
KHA2 251336Z 04016KT 05/05 A2996 RMK A01 T00480045  RH  097%=      5-min Rain = 0
KHA2 251337Z 03014KT 05/05 A2996 RMK A01 T00480045  RH  097%=      5-min Rain = 0
KHA2 251338Z 04013KT 05/05 A2996 RMK A01 T00490045  RH  097%=      5-min Rain = 0
KHA2 251339Z 05014KT 05/05 A2996 RMK A01 T00490045  RH  097%=      5-min Rain = 0
KHA2 251340Z 04012KT 05/05 A2996 RMK A01 T00490045  RH  097%=      5-min Rain = 0
KHA2 251341Z 04015KT 05/05 A2996 RMK A01 T00490045  RH  098%=      5-min Rain = 0
KHA2 251342Z 04015KT 05/05 A2996 RMK A01 T00490046  RH  098%=      5-min Rain = 0
KHA2 251343Z 04013KT 05/05 A2996 RMK A01 T00490045  RH  098%=      5-min Rain = 0
KHA2 251344Z 04012KT 05/05 A2997 RMK A01 T00490046  RH  098%=      5-min Rain = 0
KHA2 251345Z 04015KT 05/05 A2997 RMK A01 T00490046  RH  098%=      5-min Rain = 0
KHA2 251346Z 04014KT 05/05 A2997 RMK A01 T00490046  RH  098%=      5-min Rain = 0
KHA2 251347Z 04013KT 05/05 A2997 RMK A01 T00490046  RH  098%=      5-min Rain = 0
KHA2 251348Z 04014KT 05/05 A2997 RMK A01 T00490046  RH  098%=      5-min Rain = 0
KHA2 251349Z 04013KT 05/05 A2997 RMK A01 T00490046  RH  098%=      5-min Rain = 0
KHA2 251350Z 04012KT 05/05 A2997 RMK A01 T00490046  RH  098%=      5-min Rain = 0
KHA2 251351Z 05013KT 05/05 A2997 RMK A01 T00490047  RH  098%=      5-min Rain = 0
KHA2 251352Z 04013KT 05/05 A2997 RMK A01 T00490046  RH  098%=      5-min Rain = 0
KHA2 251353Z 04014KT 05/05 A2997 RMK A01 T00490046  RH  098%=      5-min Rain = 0
KHA2 251354Z 04015KT 05/05 A2998 RMK A01 T00490046  RH  098%=      5-min Rain = 0
KHA2 251355Z 03012KT 05/05 A2998 RMK A01 T00490046  RH  098%=      5-min Rain = 0
KHA2 251356Z 04012KT 05/05 A2998 RMK A01 T00500046  RH  098%=      5-min Rain = 0
KHA2 251357Z 04015KT 05/05 A2998 RMK A01 T00500047  RH  098%=      5-min Rain = 0
KHA2 251358Z 04014KT 05/05 A2998 RMK A01 T00500046  RH  098%=      5-min Rain = 0
KHA2 251359Z 03015KT 05/05 A2998 RMK A01 T00500046  RH  098%=      5-min Rain = 0
KHA2 251400Z 03017KT 05/05 A2998 RMK A01 T00480045  RH  097%=      5-min Rain = 0
KHA2 251401Z 02015KT 05/04 A2998 RMK A01 T00470043  RH  097%=      5-min Rain = 0
KHA2 251402Z 02016KT 05/04 A2998 RMK A01 T00460042  RH  097%=      5-min Rain = 0
KHA2 251403Z 02016KT 05/04 A2998 RMK A01 T00450041  RH  097%=      5-min Rain = 0
KHA2 251404Z 03018KT 05/04 A2998 RMK A01 T00450040  RH  097%=      5-min Rain = 0
KHA2 251405Z 03018KT 04/04 A2998 RMK A01 T00440040  RH  097%=      5-min Rain = 0
KHA2 251406Z 02017KT 04/04 A2998 RMK A01 T00430039  RH  097%=      5-min Rain = 0
KHA2 251407Z 02016KT 04/04 A2999 RMK A01 T00430039  RH  097%=      5-min Rain = 0
KHA2 251408Z 03014KT 04/04 A2999 RMK A01 T00430039  RH  097%=      5-min Rain = 0
KHA2 251409Z 02015KT 04/04 A2999 RMK A01 T00430039  RH  098%=      5-min Rain = 0
KHA2 251410Z 01015G20KT 04/04 A2999 RMK A01 T00430039  RH  098%=      5-min Rain = 0
KHA2 251411Z 01017KT 04/03 A2999 RMK A01 T00390034  RH  097%=      5-min Rain = 0
KHA2 251412Z 01017KT 03/03 A2999 RMK A01 T00340029  RH  096%=      5-min Rain = 0
KHA2 251413Z 02017KT 03/03 A2999 RMK A01 T00330027  RH  096%=      5-min Rain = 0
KHA2 251414Z 01020KT 03/03 A2999 RMK A01 T00310025  RH  096%=      5-min Rain = 0
KHA2 251415Z 01018KT 03/02 A2999 RMK A01 T00290024  RH  096%=      5-min Rain = 0
KHA2 251416Z 02016KT 03/02 A2999 RMK A01 T00290023  RH  096%=      5-min Rain = 0
KHA2 251417Z 02017KT 03/02 A2999 RMK A01 T00290024  RH  097%=      5-min Rain = 0
KHA2 251418Z 02017KT 03/02 A2999 RMK A01 T00280023  RH  097%=      5-min Rain = 0
KHA2 251419Z 02018KT 03/02 A2999 RMK A01 T00280023  RH  097%=      5-min Rain = 0
KHA2 251420Z 02016KT 03/02 A2999 RMK A01 T00270023  RH  097%=      5-min Rain = 0
KHA2 251421Z 02014KT 03/02 A2999 RMK A01 T00270023  RH  097%=      5-min Rain = 0
KHA2 251422Z 01014KT 03/02 A2999 RMK A01 T00270023  RH  097%=      5-min Rain = 0
KHA2 251423Z 02015KT 03/02 A2999 RMK A01 T00270023  RH  097%=      5-min Rain = 0
KHA2 251424Z 02015KT 03/02 A2999 RMK A01 T00270023  RH  097%=      5-min Rain = 0
KHA2 251425Z 02016KT 03/02 A2999 RMK A01 T00270023  RH  097%=      5-min Rain = 0
KHA2 251426Z 01016KT 03/02 A2999 RMK A01 T00270023  RH  097%=      5-min Rain = 0
KHA2 251427Z 02015KT 03/02 A2999 RMK A01 T00260022  RH  097%=      5-min Rain = 0
KHA2 251428Z 02017KT 03/02 A2999 RMK A01 T00260023  RH  097%=      5-min Rain = 0
KHA2 251429Z 02018KT 03/02 A30 RMK A01 T00260022  RH  097%=      5-min Rain = 0
KHA2 251430Z 01017KT 03/02 A30 RMK A01 T00250022  RH  097%=      5-min Rain = 0
KHA2 251431Z 02016KT 03/02 A30 RMK A01 T00250021  RH  097%=      5-min Rain = 0
KHA2 251432Z 02015KT 03/02 A30 RMK A01 T00250022  RH  098%=      5-min Rain = 0
KHA2 251433Z 01016KT 03/02 A30 RMK A01 T00250022  RH  098%=      5-min Rain = 0
KHA2 251434Z 01016KT 03/02 A3001 RMK A01 T00250021  RH  098%=      5-min Rain = 0
KHA2 251435Z 01016KT 03/02 A3001 RMK A01 T00250021  RH  098%=      5-min Rain = 0
KHA2 251436Z 01016KT 02/02 A3001 RMK A01 T00240021  RH  098%=      5-min Rain = 0
KHA2 251437Z 01017KT 02/02 A3001 RMK A01 T00240021  RH  098%=      5-min Rain = 0
KHA2 251438Z 01016KT 02/02 A3001 RMK A01 T00240021  RH  098%=      5-min Rain = 0
KHA2 251439Z 01017KT 02/02 A3001 RMK A01 T00240020  RH  098%=      5-min Rain = 0
KHA2 251440Z 01017KT 02/02 A3001 RMK A01 T00240021  RH  098%=      5-min Rain = 0
KHA2 251441Z 01016KT 02/02 A3001 RMK A01 T00230020  RH  098%=      5-min Rain = 0
KHA2 251442Z 01016KT 02/02 A3001 RMK A01 T00230020  RH  098%=      5-min Rain = 0
KHA2 251443Z 01015KT 02/02 A3001 RMK A01 T00230020  RH  098%=      5-min Rain = 0
KHA2 251444Z 02013KT 02/02 A3001 RMK A01 T00230020  RH  098%=      5-min Rain = 0
KHA2 251445Z 02015KT 02/02 A3001 RMK A01 T00240021  RH  098%=      5-min Rain = 0
KHA2 251446Z 02015KT 03/02 A3001 RMK A01 T00250022  RH  098%=      5-min Rain = 0
KHA2 251447Z 02018KT 03/02 A3001 RMK A01 T00250022  RH  098%=      5-min Rain = 0
KHA2 251448Z 02018KT 02/02 A30 RMK A01 T00240021  RH  098%=      5-min Rain = 0
KHA2 251449Z 02017KT 02/02 A30 RMK A01 T00230020  RH  098%=      5-min Rain = 0
KHA2 251450Z 02017KT 02/02 A30 RMK A01 T00230020  RH  098%=      5-min Rain = 0
KHA2 251451Z 02017KT 02/02 A30 RMK A01 T00230020  RH  098%=      5-min Rain = 0
KHA2 251452Z 02016KT 02/02 A30 RMK A01 T00230020  RH  098%=      5-min Rain = 0
KHA2 251453Z 02016KT 02/02 A30 RMK A01 T00240021  RH  098%=      5-min Rain = 0
KHA2 251454Z 03016KT 02/02 A30 RMK A01 T00240022  RH  098%=      5-min Rain = 0
KHA2 251455Z 03014KT 02/02 A30 RMK A01 T00240022  RH  098%=      5-min Rain = 0
KHA2 251456Z 03015KT 03/02 A30 RMK A01 T00250022  RH  098%=      5-min Rain = 0
KHA2 251457Z 02014KT 03/02 A3001 RMK A01 T00250022  RH  098%=      5-min Rain = 0
KHA2 251458Z 02015KT 02/02 A3001 RMK A01 T00240021  RH  098%=      5-min Rain = 0
KHA2 251459Z 03015KT 02/02 A3001 RMK A01 T00240021  RH  098%=      5-min Rain = 0
KHA2 251500Z 03018KT 02/02 A30 RMK A01 T00240021  RH  098%=      5-min Rain = 0
KHA2 251501Z 03017KT 02/02 A3001 RMK A01 T00230020  RH  098%=      5-min Rain = 0
KHA2 251502Z 02017KT 02/02 A3001 RMK A01 T00230020  RH  098%=      5-min Rain = 0
KHA2 251503Z 02015KT 02/02 A3001 RMK A01 T00230020  RH  098%=      5-min Rain = 0
KHA2 251504Z 02017KT 02/02 A3001 RMK A01 T00230020  RH  098%=      5-min Rain = 0
KHA2 251505Z 02016KT 02/02 A3001 RMK A01 T00230020  RH  098%=      5-min Rain = 0
KHA2 251506Z 02015KT 02/02 A3001 RMK A01 T00230020  RH  098%=      5-min Rain = 0
KHA2 251507Z 03015KT 02/02 A3001 RMK A01 T00240021  RH  098%=      5-min Rain = 0
KHA2 251508Z 02013KT 02/02 A3001 RMK A01 T00240022  RH  098%=      5-min Rain = 0
KHA2 251509Z 02015KT 03/02 A3001 RMK A01 T00250022  RH  098%=      5-min Rain = 0
KHA2 251510Z 02016KT 03/02 A3001 RMK A01 T00250022  RH  098%=      5-min Rain = 0
KHA2 251511Z 02014KT 03/02 A3001 RMK A01 T00250022  RH  098%=      5-min Rain = 0
KHA2 251512Z 03016KT 03/02 A3001 RMK A01 T00250022  RH  098%=      5-min Rain = 0
KHA2 251513Z 03016KT 02/02 A3001 RMK A01 T00240021  RH  098%=      5-min Rain = 0
KHA2 251514Z 02015KT 03/02 A3001 RMK A01 T00250023  RH  098%=      5-min Rain = 0
KHA2 251515Z 02016KT 03/02 A3001 RMK A01 T00260023  RH  098%=      5-min Rain = 0
KHA2 251516Z 02017KT 03/02 A3001 RMK A01 T00250022  RH  098%=      5-min Rain = 0
KHA2 251517Z 02016KT 02/02 A3002 RMK A01 T00240021  RH  098%=      5-min Rain = 0
KHA2 251518Z 02016KT 03/02 A3002 RMK A01 T00250023  RH  098%=      5-min Rain = 0
KHA2 251519Z 02018KT 03/02 A3002 RMK A01 T00250023  RH  098%=      5-min Rain = 0
KHA2 251520Z 02016KT 03/02 A3002 RMK A01 T00250022  RH  098%=      5-min Rain = 0
KHA2 251521Z 03015KT 03/02 A3002 RMK A01 T00250022  RH  098%=      5-min Rain = 0
KHA2 251522Z 02013G18KT 03/02 A3002 RMK A01 T00260023  RH  098%=      5-min Rain = 0
KHA2 251523Z 03016KT 03/02 A3002 RMK A01 T00270024  RH  098%=      5-min Rain = 0
KHA2 251524Z 03014KT 03/02 A3002 RMK A01 T00260023  RH  098%=      5-min Rain = 0
KHA2 251525Z 03017KT 03/02 A3002 RMK A01 T00270024  RH  098%=      5-min Rain = 0
KHA2 251526Z 03017KT 03/02 A3002 RMK A01 T00260023  RH  098%=      5-min Rain = 0
KHA2 251527Z 03017KT 03/02 A3002 RMK A01 T00250022  RH  098%=      5-min Rain = 0
KHA2 251528Z 03017KT 03/02 A3002 RMK A01 T00250022  RH  098%=      5-min Rain = 0
KHA2 251529Z 03014KT 03/02 A3001 RMK A01 T00250022  RH  098%=      5-min Rain = 0
KHA2 251530Z 03015KT 03/02 A3001 RMK A01 T00260023  RH  098%=      5-min Rain = 0
KHA2 251531Z 03014KT 03/02 A3001 RMK A01 T00260023  RH  098%=      5-min Rain = 0
KHA2 251532Z 03015KT 03/02 A3001 RMK A01 T00270024  RH  098%=      5-min Rain = 0
KHA2 251533Z 03014KT 03/02 A3001 RMK A01 T00260022  RH  098%=      5-min Rain = 0
KHA2 251534Z 04015KT 03/02 A3001 RMK A01 T00260022  RH  098%=      5-min Rain = 0
KHA2 251535Z 03015KT 03/02 A3002 RMK A01 T00270024  RH  098%=      5-min Rain = 0
KHA2 251536Z 04017KT 03/02 A3002 RMK A01 T00270023  RH  098%=      5-min Rain = 0
KHA2 251537Z 03014KT 03/02 A3002 RMK A01 T00260022  RH  097%=      5-min Rain = 0
KHA2 251538Z 03015KT 03/02 A3002 RMK A01 T00260022  RH  097%=      5-min Rain = 0
KHA2 251539Z 03017KT 03/02 A3002 RMK A01 T00260022  RH  097%=      5-min Rain = 0
KHA2 251540Z 03018KT 03/02 A3002 RMK A01 T00260022  RH  097%=      5-min Rain = 0
KHA2 251541Z 03016KT 03/02 A3002 RMK A01 T00260021  RH  097%=      5-min Rain = 0
KHA2 251542Z 02016KT 03/02 A3003 RMK A01 T00260021  RH  097%=      5-min Rain = 0
KHA2 251543Z 02016KT 03/02 A3003 RMK A01 T00260022  RH  097%=      5-min Rain = 0
KHA2 251544Z 02014KT 03/02 A3003 RMK A01 T00260022  RH  097%=      5-min Rain = 0
KHA2 251545Z 02015KT 03/02 A3003 RMK A01 T00270022  RH  097%=      5-min Rain = 0
KHA2 251546Z 02016KT 03/02 A3003 RMK A01 T00280023  RH  097%=      5-min Rain = 0
KHA2 251547Z 03015KT 03/02 A3003 RMK A01 T00270022  RH  096%=      5-min Rain = 0
KHA2 251548Z 03015KT 03/02 A3003 RMK A01 T00270021  RH  096%=      5-min Rain = 0
KHA2 251549Z 03014KT 03/02 A3003 RMK A01 T00270022  RH  096%=      5-min Rain = 0
KHA2 251550Z 02016KT 03/02 A3003 RMK A01 T00270022  RH  096%=      5-min Rain = 0
KHA2 251551Z 02016KT 03/02 A3003 RMK A01 T00280022  RH  096%=      5-min Rain = 0
KHA2 251552Z 02016KT 03/02 A3003 RMK A01 T00270021  RH  096%=      5-min Rain = 0
KHA2 251553Z 02015KT 03/02 A3003 RMK A01 T00280021  RH  096%=      5-min Rain = 0
KHA2 251554Z 03015KT 03/02 A3003 RMK A01 T00270021  RH  096%=      5-min Rain = 0
KHA2 251555Z 03014KT 03/02 A3003 RMK A01 T00270021  RH  095%=      5-min Rain = 0
KHA2 251556Z 02016KT 03/02 A3003 RMK A01 T00270021  RH  095%=      5-min Rain = 0
KHA2 251557Z 02015KT 03/02 A3003 RMK A01 T00270021  RH  095%=      5-min Rain = 0
KHA2 251558Z 02014KT 03/02 A3003 RMK A01 T00270020  RH  095%=      5-min Rain = 0
KHA2 251559Z 04014KT 03/02 A3003 RMK A01 T00270021  RH  096%=      5-min Rain = 0
KHA2 251600Z 03011KT 03/02 A3003 RMK A01 T00270021  RH  095%=      5-min Rain = 0
KHA2 251601Z 03010KT 03/02 A3003 RMK A01 T00290022  RH  095%=      5-min Rain = 0
KHA2 251602Z 04012KT 03/02 A3003 RMK A01 T00300023  RH  095%=      5-min Rain = 0
KHA2 251603Z 02015KT 03/02 A3003 RMK A01 T00300022  RH  094%=      5-min Rain = 0
KHA2 251604Z 03015KT 03/02 A3003 RMK A01 T00290021  RH  094%=      5-min Rain = 0
KHA2 251605Z 03015KT 03/02 A3003 RMK A01 T00290020  RH  094%=      5-min Rain = 0
KHA2 251606Z 03015KT 03/02 A3003 RMK A01 T00280020  RH  094%=      5-min Rain = 0
KHA2 251607Z 03014KT 03/02 A3003 RMK A01 T00290021  RH  094%=      5-min Rain = 0
KHA2 251608Z 03015KT 03/02 A3003 RMK A01 T00290020  RH  094%=      5-min Rain = 0
KHA2 251609Z 04016KT 03/02 A3003 RMK A01 T00290020  RH  094%=      5-min Rain = 0
KHA2 251610Z 04015KT 03/02 A3003 RMK A01 T00280020  RH  094%=      5-min Rain = 0
KHA2 251611Z 03015KT 03/02 A3003 RMK A01 T00280020  RH  094%=      5-min Rain = 0
KHA2 251612Z 03015KT 03/02 A3003 RMK A01 T00270019  RH  094%=      5-min Rain = 0
KHA2 251613Z 03014KT 03/02 A3003 RMK A01 T00270019  RH  094%=      5-min Rain = 0
KHA2 251614Z 03015KT 03/02 A3003 RMK A01 T00280020  RH  094%=      5-min Rain = 0
KHA2 251615Z 03014KT 03/02 A3003 RMK A01 T00280020  RH  094%=      5-min Rain = 0
KHA2 251616Z 02014KT 03/02 A3003 RMK A01 T00280020  RH  094%=      5-min Rain = 0
KHA2 251617Z 02014KT 03/02 A3004 RMK A01 T00290020  RH  094%=      5-min Rain = 0
KHA2 251618Z 02013KT 03/02 A3004 RMK A01 T00290020  RH  094%=      5-min Rain = 0
KHA2 251619Z 02016KT 03/02 A3004 RMK A01 T00290020  RH  094%=      5-min Rain = 0
KHA2 251620Z 02013KT 03/02 A3004 RMK A01 T00280019  RH  094%=      5-min Rain = 0
KHA2 251621Z 02012KT 03/02 A3004 RMK A01 T00290020  RH  094%=      5-min Rain = 0
KHA2 251622Z 02012KT 03/02 A3004 RMK A01 T00290020  RH  094%=      5-min Rain = 0
KHA2 251623Z 02011KT 03/02 A3004 RMK A01 T00290020  RH  094%=      5-min Rain = 0
KHA2 251624Z 02011KT 03/02 A3004 RMK A01 T00300021  RH  094%=      5-min Rain = 0
KHA2 251625Z 03012KT 03/02 A3004 RMK A01 T00310021  RH  093%=      5-min Rain = 0
KHA2 251626Z 02013KT 03/02 A3004 RMK A01 T00320022  RH  093%=      5-min Rain = 0
KHA2 251627Z 02013KT 03/02 A3004 RMK A01 T00320022  RH  093%=      5-min Rain = 0
KHA2 251628Z 03014KT 03/02 A3004 RMK A01 T00320021  RH  092%=      5-min Rain = 0
KHA2 251629Z 03015KT 03/02 A3004 RMK A01 T00320020  RH  092%=      5-min Rain = 0
KHA2 251630Z 03016KT 03/02 A3004 RMK A01 T00310019  RH  092%=      5-min Rain = 0
KHA2 251631Z 03013KT 03/02 A3004 RMK A01 T00300018  RH  092%=      5-min Rain = 0
KHA2 251632Z 02015KT 03/02 A3004 RMK A01 T00290018  RH  092%=      5-min Rain = 0
KHA2 251633Z 03015KT 03/02 A3004 RMK A01 T00290018  RH  092%=      5-min Rain = 0
KHA2 251634Z 02013KT 03/02 A3004 RMK A01 T00290018  RH  093%=      5-min Rain = 0
KHA2 251635Z 02014KT 03/02 A3004 RMK A01 T00300020  RH  093%=      5-min Rain = 0
KHA2 251636Z 01017KT 03/02 A3004 RMK A01 T00290019  RH  093%=      5-min Rain = 0
KHA2 251637Z 02016KT 03/02 A3003 RMK A01 T00280018  RH  093%=      5-min Rain = 0
KHA2 251638Z 02014KT 03/02 A3003 RMK A01 T00280018  RH  093%=      5-min Rain = 0
KHA2 251639Z 02013KT 03/02 A3004 RMK A01 T00280018  RH  093%=      5-min Rain = 0
KHA2 251640Z 02015KT 03/02 A3004 RMK A01 T00290019  RH  093%=      5-min Rain = 0
KHA2 251641Z 02015KT 03/02 A3004 RMK A01 T00290018  RH  093%=      5-min Rain = 0
KHA2 251642Z 03015KT 03/02 A3004 RMK A01 T00280018  RH  093%=      5-min Rain = 0
KHA2 251643Z 02014KT 03/02 A3004 RMK A01 T00280018  RH  093%=      5-min Rain = 0
KHA2 251644Z 01013KT 03/02 A3004 RMK A01 T00280018  RH  093%=      5-min Rain = 0
KHA2 251645Z 02014KT 03/02 A3004 RMK A01 T00290018  RH  093%=      5-min Rain = 0
KHA2 251646Z 02013KT 03/02 A3004 RMK A01 T00290018  RH  092%=      5-min Rain = 0
KHA2 251647Z 02015KT 03/02 A3004 RMK A01 T00290018  RH  092%=      5-min Rain = 0
KHA2 251648Z 02013KT 03/02 A3004 RMK A01 T00300018  RH  092%=      5-min Rain = 0
KHA2 251649Z 03016KT 03/02 A3004 RMK A01 T00300018  RH  092%=      5-min Rain = 0
KHA2 251650Z 03015KT 03/02 A3004 RMK A01 T00300017  RH  091%=      5-min Rain = 0
KHA2 251651Z 02016KT 03/02 A3004 RMK A01 T00300018  RH  091%=      5-min Rain = 0
KHA2 251652Z 02014KT 03/02 A3004 RMK A01 T00300017  RH  091%=      5-min Rain = 0
KHA2 251653Z 02013KT 03/02 A3004 RMK A01 T00310018  RH  091%=      5-min Rain = 0
KHA2 251654Z 02012KT 03/02 A3004 RMK A01 T00320018  RH  091%=      5-min Rain = 0
KHA2 251655Z 02012KT 03/02 A3004 RMK A01 T00310017  RH  090%=      5-min Rain = 0
KHA2 251656Z 03012KT 03/02 A3004 RMK A01 T00310018  RH  091%=      5-min Rain = 0
KHA2 251657Z 04014KT 03/02 A3004 RMK A01 T00320019  RH  091%=      5-min Rain = 0
KHA2 251658Z 04014KT 03/02 A3004 RMK A01 T00320018  RH  090%=      5-min Rain = 0
KHA2 251659Z 04014KT 03/02 A3004 RMK A01 T00320018  RH  090%=      5-min Rain = 0
KHA2 251700Z 03014KT 03/02 A3004 RMK A01 T00320018  RH  090%=      5-min Rain = 0
KHA2 251701Z 03013KT 03/02 A3003 RMK A01 T00330018  RH  090%=      5-min Rain = 0
KHA2 251702Z 03013KT 03/02 A3003 RMK A01 T00330018  RH  090%=      5-min Rain = 0
KHA2 251703Z 04014KT 03/02 A3003 RMK A01 T00340019  RH  090%=      5-min Rain = 0
KHA2 251704Z 04014KT 03/02 A3003 RMK A01 T00340018  RH  089%=      5-min Rain = 0
KHA2 251705Z 03012KT 03/02 A3003 RMK A01 T00340017  RH  089%=      5-min Rain = 0
KHA2 251706Z 01013KT 03/02 A3003 RMK A01 T00330017  RH  089%=      5-min Rain = 0
KHA2 251707Z 02014KT 03/02 A3004 RMK A01 T00330017  RH  089%=      5-min Rain = 0
KHA2 251708Z 03015KT 03/02 A3004 RMK A01 T00330017  RH  089%=      5-min Rain = 0
KHA2 251709Z 03014KT 03/02 A3003 RMK A01 T00330017  RH  089%=      5-min Rain = 0
KHA2 251710Z 03013KT 03/02 A3004 RMK A01 T00330018  RH  090%=      5-min Rain = 0
KHA2 251711Z 02012KT 04/02 A3004 RMK A01 T00360020  RH  090%=      5-min Rain = 0
KHA2 251712Z 02012KT 04/02 A3004 RMK A01 T00370020  RH  089%=      5-min Rain = 0
KHA2 251713Z 01013KT 04/02 A3004 RMK A01 T00370018  RH  087%=      5-min Rain = 0
KHA2 251714Z 02013KT 04/02 A3004 RMK A01 T00360017  RH  088%=      5-min Rain = 0
KHA2 251715Z 01013KT 04/02 A3004 RMK A01 T00360017  RH  088%=      5-min Rain = 0
KHA2 251716Z 00015KT 04/02 A3005 RMK A01 T00350016  RH  087%=      5-min Rain = 0
KHA2 251717Z 01011KT 03/02 A3005 RMK A01 T00340016  RH  088%=      5-min Rain = 0
KHA2 251718Z 01011KT 03/02 A3005 RMK A01 T00340016  RH  088%=      5-min Rain = 0
KHA2 251719Z 01014KT 04/02 A3005 RMK A01 T00350017  RH  088%=      5-min Rain = 0
KHA2 251720Z 02014KT 04/02 A3005 RMK A01 T00350016  RH  087%=      5-min Rain = 0
KHA2 251721Z 02015KT 04/02 A3005 RMK A01 T00350017  RH  088%=      5-min Rain = 0
KHA2 251722Z 02015KT 03/02 A3005 RMK A01 T00340017  RH  088%=      5-min Rain = 0
KHA2 251723Z 03016KT 03/02 A3005 RMK A01 T00340017  RH  089%=      5-min Rain = 0
KHA2 251724Z 03015KT 03/02 A3004 RMK A01 T00340017  RH  089%=      5-min Rain = 0
KHA2 251725Z 03016KT 03/02 A3004 RMK A01 T00340017  RH  089%=      5-min Rain = 0
KHA2 251726Z 03015KT 03/02 A3004 RMK A01 T00340016  RH  088%=      5-min Rain = 0
KHA2 251727Z 03015KT 03/02 A3004 RMK A01 T00330016  RH  088%=      5-min Rain = 0
KHA2 251728Z 03016KT 03/02 A3004 RMK A01 T00330016  RH  088%=      5-min Rain = 0
KHA2 251729Z 03015KT 03/02 A3004 RMK A01 T00330016  RH  089%=      5-min Rain = 0
KHA2 251730Z 02012KT 03/02 A3004 RMK A01 T00330016  RH  089%=      5-min Rain = 0
KHA2 251731Z 01015KT 03/02 A3004 RMK A01 T00340017  RH  089%=      5-min Rain = 0
KHA2 251732Z 01015KT 03/02 A3004 RMK A01 T00340015  RH  088%=      5-min Rain = 0
KHA2 251733Z 03014KT 03/02 A3004 RMK A01 T00340015  RH  088%=      5-min Rain = 0
KHA2 251734Z 03015KT 04/02 A3003 RMK A01 T00350017  RH  088%=      5-min Rain = 0
KHA2 251735Z 02016KT 04/02 A3003 RMK A01 T00360017  RH  087%=      5-min Rain = 0
KHA2 251736Z 02014KT 04/02 A3003 RMK A01 T00370017  RH  087%=      5-min Rain = 0
KHA2 251737Z 03015KT 04/02 A3003 RMK A01 T00370017  RH  087%=      5-min Rain = 0
KHA2 251738Z 03014KT 04/02 A3003 RMK A01 T00370016  RH  086%=      5-min Rain = 0
KHA2 251739Z 03014KT 04/02 A3003 RMK A01 T00360016  RH  087%=      5-min Rain = 0
KHA2 251740Z 02015KT 04/02 A3003 RMK A01 T00370017  RH  087%=      5-min Rain = 0
KHA2 251741Z 02015KT 04/02 A3003 RMK A01 T00360016  RH  087%=      5-min Rain = 0
KHA2 251742Z 02014KT 04/02 A3003 RMK A01 T00360016  RH  087%=      5-min Rain = 0
KHA2 251743Z 02015KT 04/02 A3003 RMK A01 T00370017  RH  087%=      5-min Rain = 0
KHA2 251744Z 02017KT 04/02 A3003 RMK A01 T00380017  RH  087%=      5-min Rain = 0
KHA2 251745Z 02016KT 04/02 A3003 RMK A01 T00380017  RH  086%=      5-min Rain = 0
KHA2 251746Z 02016KT 04/02 A3003 RMK A01 T00370016  RH  086%=      5-min Rain = 0
KHA2 251747Z 02014KT 04/02 A3003 RMK A01 T00370016  RH  087%=      5-min Rain = 0
KHA2 251748Z 03016KT 04/02 A3003 RMK A01 T00380017  RH  086%=      5-min Rain = 0
KHA2 251749Z 03016KT 04/02 A3003 RMK A01 T00370016  RH  086%=      5-min Rain = 0
KHA2 251750Z 02017KT 04/02 A3003 RMK A01 T00370016  RH  086%=      5-min Rain = 0
KHA2 251751Z 03014KT 04/02 A3003 RMK A01 T00370016  RH  087%=      5-min Rain = 0
KHA2 251752Z 02013KT 04/02 A3003 RMK A01 T00370017  RH  087%=      5-min Rain = 0
KHA2 251753Z 03012KT 04/02 A3003 RMK A01 T00380017  RH  086%=      5-min Rain = 0
KHA2 251754Z 03017KT 04/02 A3003 RMK A01 T00400018  RH  086%=      5-min Rain = 0
KHA2 251755Z 03016KT 04/02 A3002 RMK A01 T00380015  RH  085%=      5-min Rain = 0
KHA2 251756Z 02016KT 04/02 A3002 RMK A01 T00370015  RH  086%=      5-min Rain = 0
KHA2 251757Z 02017KT 04/02 A3002 RMK A01 T00360015  RH  086%=      5-min Rain = 0
KHA2 251758Z 02016KT 04/02 A3002 RMK A01 T00360015  RH  086%=      5-min Rain = 0
KHA2 251759Z 02016KT 04/02 A3002 RMK A01 T00360016  RH  087%=      5-min Rain = 0
KHA2 251800Z 02015KT 04/02 A3002 RMK A01 T00370017  RH  087%=      5-min Rain = 0
KHA2 251801Z 03016KT 04/02 A3002 RMK A01 T00380017  RH  086%=      5-min Rain = 0
KHA2 251802Z 02016KT 04/02 A3002 RMK A01 T00380016  RH  086%=      5-min Rain = 0
KHA2 251803Z 02016KT 04/02 A3002 RMK A01 T00380015  RH  085%=      5-min Rain = 0
KHA2 251804Z 02014KT 04/01 A3002 RMK A01 T00360014  RH  085%=      5-min Rain = 0
KHA2 251805Z 02016KT 04/01 A3002 RMK A01 T00360014  RH  086%=      5-min Rain = 0
KHA2 251806Z 02013KT 04/01 A3003 RMK A01 T00350014  RH  086%=      5-min Rain = 0
KHA2 251807Z 01016KT 04/01 A3003 RMK A01 T00350014  RH  086%=      5-min Rain = 0
KHA2 251808Z 02017KT 04/01 A3003 RMK A01 T00350014  RH  086%=      5-min Rain = 0
KHA2 251809Z 02017KT 04/01 A3003 RMK A01 T00350014  RH  086%=      5-min Rain = 0
KHA2 251810Z 02017KT 03/01 A3003 RMK A01 T00340014  RH  087%=      5-min Rain = 0
KHA2 251811Z 02015KT 03/01 A3002 RMK A01 T00340014  RH  087%=      5-min Rain = 0
KHA2 251812Z 03014KT 04/02 A3002 RMK A01 T00350015  RH  087%=      5-min Rain = 0
KHA2 251813Z 02013KT 04/02 A3002 RMK A01 T00350015  RH  087%=      5-min Rain = 0
KHA2 251814Z 03013KT 04/02 A3002 RMK A01 T00370015  RH  086%=      5-min Rain = 0
KHA2 251815Z 02014KT 04/02 A3002 RMK A01 T00370015  RH  086%=      5-min Rain = 0
KHA2 251816Z 02015KT 04/01 A3002 RMK A01 T00370014  RH  085%=      5-min Rain = 0
KHA2 251817Z 02014KT 04/01 A3002 RMK A01 T00370014  RH  085%=      5-min Rain = 0
KHA2 251818Z 02014KT 04/01 A3002 RMK A01 T00370014  RH  085%=      5-min Rain = 0
KHA2 251819Z 01015KT 04/01 A3003 RMK A01 T00370014  RH  085%=      5-min Rain = 0
KHA2 251820Z 02013KT 04/01 A3003 RMK A01 T00370014  RH  085%=      5-min Rain = 0
KHA2 251821Z 02014KT 04/02 A3002 RMK A01 T00390016  RH  085%=      5-min Rain = 0
KHA2 251822Z 02013KT 04/02 A3002 RMK A01 T00400015  RH  084%=      5-min Rain = 0
KHA2 251823Z 02015KT 04/02 A3002 RMK A01 T00410015  RH  084%=      5-min Rain = 0
KHA2 251824Z 03016KT 04/02 A3002 RMK A01 T00410015  RH  083%=      5-min Rain = 0
KHA2 251825Z 02013KT 04/01 A3002 RMK A01 T00400014  RH  083%=      5-min Rain = 0
KHA2 251826Z 03015KT 04/02 A3002 RMK A01 T00400015  RH  084%=      5-min Rain = 0
KHA2 251827Z 03014KT 04/02 A3002 RMK A01 T00410015  RH  084%=      5-min Rain = 0
KHA2 251828Z 03016KT 04/02 A3002 RMK A01 T00410015  RH  083%=      5-min Rain = 0
KHA2 251829Z 02014KT 04/01 A3002 RMK A01 T00410014  RH  083%=      5-min Rain = 0
KHA2 251830Z 02015KT 04/01 A3002 RMK A01 T00410014  RH  083%=      5-min Rain = 0
KHA2 251831Z 03015KT 04/02 A3001 RMK A01 T00410015  RH  083%=      5-min Rain = 0
KHA2 251832Z 03017KT 04/02 A3001 RMK A01 T00420015  RH  083%=      5-min Rain = 0
KHA2 251833Z 03016KT 04/01 A3001 RMK A01 T00410014  RH  082%=      5-min Rain = 0
KHA2 251834Z 03016KT 04/01 A3001 RMK A01 T00400014  RH  083%=      5-min Rain = 0
KHA2 251835Z 03015KT 04/01 A3001 RMK A01 T00410014  RH  083%=      5-min Rain = 0
KHA2 251836Z 04014KT 04/01 A3001 RMK A01 T00410014  RH  083%=      5-min Rain = 0
KHA2 251837Z 04014KT 04/02 A3001 RMK A01 T00420016  RH  083%=      5-min Rain = 0
KHA2 251838Z 04015KT 04/02 A3001 RMK A01 T00440016  RH  082%=      5-min Rain = 0
KHA2 251839Z 03014KT 05/02 A3001 RMK A01 T00460017  RH  082%=      5-min Rain = 0
KHA2 251840Z 04014KT 05/02 A3001 RMK A01 T00470017  RH  081%=      5-min Rain = 0
KHA2 251841Z 04013KT 05/02 A3001 RMK A01 T00470017  RH  081%=      5-min Rain = 0
KHA2 251842Z 04011KT 05/02 A3001 RMK A01 T00460015  RH  081%=      5-min Rain = 0
KHA2 251843Z 03013KT 04/02 A3001 RMK A01 T00440015  RH  081%=      5-min Rain = 0
KHA2 251844Z 04013KT 05/02 A3001 RMK A01 T00450017  RH  082%=      5-min Rain = 0
KHA2 251845Z 04014KT 05/02 A3001 RMK A01 T00470017  RH  081%=      5-min Rain = 0
KHA2 251846Z 05016KT 05/02 A3001 RMK A01 T00470016  RH  080%=      5-min Rain = 0
KHA2 251847Z 04014KT 05/01 A3001 RMK A01 T00450014  RH  081%=      5-min Rain = 0
KHA2 251848Z 04014KT 05/02 A3001 RMK A01 T00460017  RH  082%=      5-min Rain = 0
KHA2 251849Z 05015KT 05/02 A3001 RMK A01 T00470017  RH  081%=      5-min Rain = 0
KHA2 251850Z 04014KT 05/02 A3001 RMK A01 T00460016  RH  081%=      5-min Rain = 0
KHA2 251851Z 04015KT 05/02 A3001 RMK A01 T00470018  RH  081%=      5-min Rain = 0
KHA2 251852Z 04015KT 05/02 A3001 RMK A01 T00470017  RH  081%=      5-min Rain = 0
KHA2 251853Z 03013KT 05/02 A3001 RMK A01 T00460016  RH  081%=      5-min Rain = 0
KHA2 251854Z 03015KT 05/02 A3001 RMK A01 T00460016  RH  081%=      5-min Rain = 0
KHA2 251855Z 03015KT 05/02 A3001 RMK A01 T00450016  RH  081%=      5-min Rain = 0
KHA2 251856Z 03016KT 04/02 A3001 RMK A01 T00440016  RH  082%=      5-min Rain = 0
KHA2 251857Z 04013KT 04/02 A3001 RMK A01 T00440016  RH  082%=      5-min Rain = 0
KHA2 251858Z 03015KT 04/02 A3001 RMK A01 T00430016  RH  083%=      5-min Rain = 0
KHA2 251859Z 03014KT 04/02 A3001 RMK A01 T00440017  RH  083%=      5-min Rain = 0
KHA2 251900Z 04012KT 04/02 A3001 RMK A01 T00440018  RH  083%=      5-min Rain = 0
KHA2 251901Z 04015KT 05/02 A3001 RMK A01 T00460018  RH  082%=      5-min Rain = 0
KHA2 251902Z 04013KT 05/02 A3001 RMK A01 T00470018  RH  082%=      5-min Rain = 0
KHA2 251903Z 05013KT 05/02 A3001 RMK A01 T00460017  RH  082%=      5-min Rain = 0
KHA2 251904Z 05014KT 05/02 A3001 RMK A01 T00460017  RH  082%=      5-min Rain = 0
KHA2 251905Z 05011KT 05/02 A3001 RMK A01 T00460017  RH  082%=      5-min Rain = 0
KHA2 251906Z 05012KT 05/02 A3001 RMK A01 T00450017  RH  082%=      5-min Rain = 0
KHA2 251907Z 03015KT 05/02 A30 RMK A01 T00470019  RH  082%=      5-min Rain = 0
KHA2 251908Z 03015KT 05/02 A30 RMK A01 T00470018  RH  082%=      5-min Rain = 0
KHA2 251909Z 03014KT 05/02 A30 RMK A01 T00450017  RH  082%=      5-min Rain = 0
KHA2 251910Z 04014KT 05/02 A30 RMK A01 T00450018  RH  083%=      5-min Rain = 0
KHA2 251911Z 04014KT 05/02 A3001 RMK A01 T00460018  RH  082%=      5-min Rain = 0
KHA2 251912Z 03013KT 05/02 A3001 RMK A01 T00450017  RH  082%=      5-min Rain = 0
KHA2 251913Z 04013KT 04/02 A3001 RMK A01 T00440017  RH  083%=      5-min Rain = 0
KHA2 251914Z 04014KT 04/02 A3001 RMK A01 T00440018  RH  083%=      5-min Rain = 0
KHA2 251915Z 03015KT 05/02 A3001 RMK A01 T00450018  RH  083%=      5-min Rain = 0
KHA2 251916Z 03015KT 05/02 A3001 RMK A01 T00450018  RH  083%=      5-min Rain = 0
KHA2 251917Z 03014KT 05/02 A3001 RMK A01 T00450018  RH  083%=      5-min Rain = 0
KHA2 251918Z 04013KT 04/02 A3001 RMK A01 T00440017  RH  083%=      5-min Rain = 0
KHA2 251919Z 03013KT 05/02 A30 RMK A01 T00450018  RH  083%=      5-min Rain = 0
KHA2 251920Z 03013KT 05/02 A30 RMK A01 T00450018  RH  083%=      5-min Rain = 0
KHA2 251921Z 03014KT 05/02 A30 RMK A01 T00460019  RH  083%=      5-min Rain = 0
KHA2 251922Z 04014KT 05/02 A30 RMK A01 T00450018  RH  083%=      5-min Rain = 0
KHA2 251923Z 03013KT 04/02 A30 RMK A01 T00440017  RH  083%=      5-min Rain = 0
KHA2 251924Z 04012KT 04/02 A30 RMK A01 T00430017  RH  083%=      5-min Rain = 0
KHA2 251925Z 03013KT 04/02 A30 RMK A01 T00430018  RH  083%=      5-min Rain = 0
KHA2 251926Z 03013KT 04/02 A30 RMK A01 T00430018  RH  083%=      5-min Rain = 0
KHA2 251927Z 03013KT 05/02 A30 RMK A01 T00450019  RH  083%=      5-min Rain = 0
KHA2 251928Z 03013KT 05/02 A30 RMK A01 T00450018  RH  083%=      5-min Rain = 0
KHA2 251929Z 03014KT 05/02 A3001 RMK A01 T00450018  RH  083%=      5-min Rain = 0
KHA2 251930Z 03014KT 04/02 A3001 RMK A01 T00440018  RH  083%=      5-min Rain = 0
KHA2 251931Z 03013KT 04/02 A3001 RMK A01 T00440017  RH  083%=      5-min Rain = 0
KHA2 251932Z 03013KT 04/02 A3001 RMK A01 T00440018  RH  083%=      5-min Rain = 0
KHA2 251933Z 03013KT 04/02 A30 RMK A01 T00430018  RH  083%=      5-min Rain = 0
KHA2 251934Z 04013KT 04/02 A30 RMK A01 T00430018  RH  083%=      5-min Rain = 0
KHA2 251935Z 03013KT 04/02 A30 RMK A01 T00430017  RH  084%=      5-min Rain = 0
KHA2 251936Z 03013KT 04/02 A30 RMK A01 T00430018  RH  084%=      5-min Rain = 0
KHA2 251937Z 03013KT 04/02 A30 RMK A01 T00440018  RH  083%=      5-min Rain = 0
KHA2 251938Z 03012KT 05/02 A3001 RMK A01 T00450018  RH  083%=      5-min Rain = 0
KHA2 251939Z 03012KT 05/02 A30 RMK A01 T00460019  RH  083%=      5-min Rain = 0
KHA2 251940Z 03016KT 05/02 A30 RMK A01 T00460018  RH  082%=      5-min Rain = 0
KHA2 251941Z 03016KT 05/02 A30 RMK A01 T00450018  RH  082%=      5-min Rain = 0
KHA2 251942Z 04014KT 05/02 A30 RMK A01 T00450017  RH  082%=      5-min Rain = 0
KHA2 251943Z 04013KT 05/02 A30 RMK A01 T00450018  RH  083%=      5-min Rain = 0
KHA2 251944Z 04013KT 04/02 A30 RMK A01 T00440017  RH  083%=      5-min Rain = 0
KHA2 251945Z 04014KT 04/02 A30 RMK A01 T00440017  RH  083%=      5-min Rain = 0
KHA2 251946Z 03013KT 04/02 A30 RMK A01 T00440018  RH  083%=      5-min Rain = 0
KHA2 251947Z 02014KT 04/02 A30 RMK A01 T00440017  RH  083%=      5-min Rain = 0
KHA2 251948Z 03017KT 04/02 A30 RMK A01 T00440017  RH  083%=      5-min Rain = 0
KHA2 251949Z 03015KT 04/02 A30 RMK A01 T00430017  RH  083%=      5-min Rain = 0
KHA2 251950Z 03012KT 04/02 A30 RMK A01 T00430017  RH  083%=      5-min Rain = 0
KHA2 251951Z 03015KT 04/02 A30 RMK A01 T00430017  RH  084%=      5-min Rain = 0
KHA2 251952Z 03012KT 04/02 A30 RMK A01 T00440018  RH  084%=      5-min Rain = 0
KHA2 251953Z 04015KT 05/02 A30 RMK A01 T00450019  RH  083%=      5-min Rain = 0
KHA2 251954Z 03014KT 04/02 A30 RMK A01 T00440017  RH  083%=      5-min Rain = 0
KHA2 251955Z 04013KT 04/02 A30 RMK A01 T00430017  RH  083%=      5-min Rain = 0
KHA2 251956Z 04014KT 04/02 A30 RMK A01 T00430018  RH  084%=      5-min Rain = 0
KHA2 251957Z 04014KT 04/02 A2999 RMK A01 T00430017  RH  083%=      5-min Rain = 0
KHA2 251958Z 04014KT 04/02 A2999 RMK A01 T00420017  RH  084%=      5-min Rain = 0
KHA2 251959Z 04015KT 04/02 A30 RMK A01 T00410017  RH  084%=      5-min Rain = 0
KHA2 252000Z 04015KT 04/02 A30 RMK A01 T00420017  RH  084%=      5-min Rain = 0
KHA2 252001Z 03014KT 04/02 A30 RMK A01 T00410017  RH  084%=      5-min Rain = 0
KHA2 252002Z 04015KT 04/02 A30 RMK A01 T00410017  RH  085%=      5-min Rain = 0
KHA2 252003Z 04015KT 04/02 A30 RMK A01 T00410017  RH  085%=      5-min Rain = 0
KHA2 252004Z 04015KT 04/02 A30 RMK A01 T00410017  RH  085%=      5-min Rain = 0
KHA2 252005Z 03014KT 04/02 A30 RMK A01 T00400017  RH  085%=      5-min Rain = 0
KHA2 252006Z 03014KT 04/02 A30 RMK A01 T00400017  RH  085%=      5-min Rain = 0
KHA2 252007Z 03014KT 04/02 A30 RMK A01 T00400016  RH  084%=      5-min Rain = 0
KHA2 252008Z 02015KT 04/02 A30 RMK A01 T00400016  RH  084%=      5-min Rain = 0
KHA2 252009Z 02015KT 04/02 A30 RMK A01 T00400016  RH  084%=      5-min Rain = 0
KHA2 252010Z 02014KT 04/02 A30 RMK A01 T00390015  RH  085%=      5-min Rain = 0
KHA2 252011Z 02013KT 04/02 A30 RMK A01 T00390016  RH  085%=      5-min Rain = 0
KHA2 252012Z 02016KT 04/02 A30 RMK A01 T00400017  RH  085%=      5-min Rain = 0
KHA2 252013Z 01016KT 04/02 A30 RMK A01 T00400016  RH  084%=      5-min Rain = 0
KHA2 252014Z 02017KT 04/02 A30 RMK A01 T00400016  RH  084%=      5-min Rain = 0
KHA2 252015Z 02017KT 04/02 A30 RMK A01 T00390016  RH  085%=      5-min Rain = 0
KHA2 252016Z 02015KT 04/02 A30 RMK A01 T00390016  RH  085%=      5-min Rain = 0
KHA2 252017Z 02015KT 04/02 A30 RMK A01 T00390016  RH  085%=      5-min Rain = 0
KHA2 252018Z 03013KT 04/02 A30 RMK A01 T00390015  RH  085%=      5-min Rain = 0
KHA2 252019Z 03014KT 04/02 A30 RMK A01 T00390015  RH  085%=      5-min Rain = 0
KHA2 252020Z 01016KT 04/02 A30 RMK A01 T00380015  RH  085%=      5-min Rain = 0
KHA2 252021Z 01015KT 04/02 A30 RMK A01 T00380015  RH  085%=      5-min Rain = 0
KHA2 252022Z 02016KT 04/02 A30 RMK A01 T00390015  RH  084%=      5-min Rain = 0
KHA2 252023Z 02019KT 04/02 A30 RMK A01 T00390015  RH  084%=      5-min Rain = 0
KHA2 252024Z 02016KT 04/02 A30 RMK A01 T00380015  RH  085%=      5-min Rain = 0
KHA2 252025Z 02016KT 04/02 A30 RMK A01 T00380015  RH  085%=      5-min Rain = 0
KHA2 252026Z 02016KT 04/02 A30 RMK A01 T00380015  RH  085%=      5-min Rain = 0
KHA2 252027Z 02018KT 04/02 A3001 RMK A01 T00370015  RH  085%=      5-min Rain = 0
KHA2 252028Z 01016KT 04/01 A3001 RMK A01 T00370014  RH  085%=      5-min Rain = 0
KHA2 252029Z 02013KT 04/01 A3001 RMK A01 T00370014  RH  085%=      5-min Rain = 0
KHA2 252030Z 03015KT 04/02 A30 RMK A01 T00380015  RH  085%=      5-min Rain = 0
KHA2 252031Z 03017KT 04/01 A3001 RMK A01 T00380014  RH  085%=      5-min Rain = 0
KHA2 252032Z 03017KT 04/01 A30 RMK A01 T00380014  RH  084%=      5-min Rain = 0
KHA2 252033Z 03014KT 04/01 A30 RMK A01 T00380014  RH  085%=      5-min Rain = 0
KHA2 252034Z 03015KT 04/01 A30 RMK A01 T00380014  RH  085%=      5-min Rain = 0
KHA2 252035Z 03015KT 04/01 A30 RMK A01 T00380014  RH  084%=      5-min Rain = 0
KHA2 252036Z 03015KT 04/01 A30 RMK A01 T00380014  RH  084%=      5-min Rain = 0
KHA2 252037Z 03014KT 04/01 A3001 RMK A01 T00380014  RH  084%=      5-min Rain = 0
KHA2 252038Z 03015KT 04/01 A3001 RMK A01 T00390014  RH  084%=      5-min Rain = 0
KHA2 252039Z 03016KT 04/01 A3001 RMK A01 T00390014  RH  084%=      5-min Rain = 0
KHA2 252040Z 02018KT 04/01 A3001 RMK A01 T00390014  RH  084%=      5-min Rain = 0
KHA2 252041Z 02016KT 04/01 A3001 RMK A01 T00370013  RH  084%=      5-min Rain = 0
KHA2 252042Z 02015KT 04/01 A3001 RMK A01 T00370013  RH  085%=      5-min Rain = 0
KHA2 252043Z 03015KT 04/01 A3001 RMK A01 T00370013  RH  085%=      5-min Rain = 0
KHA2 252044Z 03017KT 04/01 A3001 RMK A01 T00370013  RH  085%=      5-min Rain = 0
KHA2 252045Z 02015KT 04/01 A3001 RMK A01 T00360013  RH  085%=      5-min Rain = 0
KHA2 252046Z 03014KT 04/01 A3001 RMK A01 T00360014  RH  086%=      5-min Rain = 0
KHA2 252047Z 03016KT 04/02 A3001 RMK A01 T00360015  RH  086%=      5-min Rain = 0
KHA2 252048Z 03016KT 04/01 A3001 RMK A01 T00360014  RH  086%=      5-min Rain = 0
KHA2 252049Z 03015KT 04/01 A3001 RMK A01 T00350014  RH  086%=      5-min Rain = 0
KHA2 252050Z 04014KT 04/01 A3001 RMK A01 T00350014  RH  087%=      5-min Rain = 0
KHA2 252051Z 04014KT 04/02 A3001 RMK A01 T00360015  RH  086%=      5-min Rain = 0
KHA2 252052Z 03012KT 04/01 A3001 RMK A01 T00360014  RH  086%=      5-min Rain = 0
KHA2 252053Z 04014KT 04/01 A3001 RMK A01 T00360014  RH  086%=      5-min Rain = 0
KHA2 252054Z 05014KT 04/01 A3001 RMK A01 T00370014  RH  085%=      5-min Rain = 0
KHA2 252055Z 04014KT 04/01 A3001 RMK A01 T00370014  RH  085%=      5-min Rain = 0
KHA2 252056Z 03014KT 04/01 A3001 RMK A01 T00360013  RH  085%=      5-min Rain = 0
KHA2 252057Z 03015KT 04/01 A3001 RMK A01 T00360013  RH  085%=      5-min Rain = 0
KHA2 252058Z 03015KT 04/01 A3001 RMK A01 T00350012  RH  085%=      5-min Rain = 0
KHA2 252059Z 03015KT 04/01 A3001 RMK A01 T00350012  RH  085%=      5-min Rain = 0
KHA2 252100Z 03016KT 04/01 A3001 RMK A01 T00360013  RH  085%=      5-min Rain = 0
KHA2 252101Z 04015KT 04/01 A3001 RMK A01 T00360013  RH  085%=      5-min Rain = 0
KHA2 252102Z 03015KT 04/01 A3001 RMK A01 T00360012  RH  084%=      5-min Rain = 0
KHA2 252103Z 04014KT 04/01 A3001 RMK A01 T00350011  RH  084%=      5-min Rain = 0
KHA2 252104Z 03017KT 04/01 A3001 RMK A01 T00350012  RH  085%=      5-min Rain = 0
KHA2 252105Z 04016KT 04/01 A3001 RMK A01 T00350012  RH  085%=      5-min Rain = 0
KHA2 252106Z 04014KT 03/01 A3001 RMK A01 T00340011  RH  085%=      5-min Rain = 0
KHA2 252107Z 03012KT 03/01 A3001 RMK A01 T00340012  RH  086%=      5-min Rain = 0
KHA2 252108Z 03015KT 04/01 A3001 RMK A01 T00360014  RH  085%=      5-min Rain = 0
KHA2 252109Z 03015KT 04/01 A3001 RMK A01 T00370013  RH  084%=      5-min Rain = 0
KHA2 252110Z 03016KT 04/01 A3001 RMK A01 T00360012  RH  084%=      5-min Rain = 0
KHA2 252111Z 03014KT 04/01 A3001 RMK A01 T00350012  RH  084%=      5-min Rain = 0
KHA2 252112Z 04014KT 04/01 A3001 RMK A01 T00350012  RH  085%=      5-min Rain = 0
KHA2 252113Z 04014KT 04/01 A3001 RMK A01 T00360012  RH  085%=      5-min Rain = 0
KHA2 252114Z 05016KT 04/01 A3001 RMK A01 T00370013  RH  084%=      5-min Rain = 0
KHA2 252115Z 04016KT 04/01 A3001 RMK A01 T00360011  RH  084%=      5-min Rain = 0
KHA2 252116Z 04017KT 04/01 A30 RMK A01 T00350010  RH  084%=      5-min Rain = 0
KHA2 252117Z 05016KT 04/01 A30 RMK A01 T00350011  RH  084%=      5-min Rain = 0
KHA2 252118Z 04016KT 03/01 A30 RMK A01 T00340011  RH  085%=      5-min Rain = 0
KHA2 252119Z 04016KT 03/01 A30 RMK A01 T00340010  RH  085%=      5-min Rain = 0
KHA2 252120Z 05014KT 04/01 A3001 RMK A01 T00350011  RH  085%=      5-min Rain = 0
KHA2 252121Z 05015KT 04/01 A3001 RMK A01 T00350012  RH  085%=      5-min Rain = 0
KHA2 252122Z 04016KT 04/01 A3001 RMK A01 T00360012  RH  084%=      5-min Rain = 0
KHA2 252123Z 04016KT 04/01 A3001 RMK A01 T00360011  RH  084%=      5-min Rain = 0
KHA2 252124Z 04016KT 04/01 A3001 RMK A01 T00360012  RH  084%=      5-min Rain = 0
KHA2 252125Z 03015KT 04/01 A3001 RMK A01 T00360012  RH  084%=      5-min Rain = 0
KHA2 252126Z 04015KT 04/01 A3001 RMK A01 T00360011  RH  084%=      5-min Rain = 0
KHA2 252127Z 03014KT 04/01 A3001 RMK A01 T00350011  RH  084%=      5-min Rain = 0
KHA2 252128Z 03015KT 04/01 A3001 RMK A01 T00350011  RH  084%=      5-min Rain = 0
KHA2 252129Z 02016KT 04/01 A3001 RMK A01 T00350011  RH  084%=      5-min Rain = 0
KHA2 252130Z 03016KT 03/01 A3001 RMK A01 T00340010  RH  085%=      5-min Rain = 0
KHA2 252131Z 03016KT 03/01 A30 RMK A01 T00330011  RH  085%=      5-min Rain = 0
KHA2 252132Z 03017KT 03/01 A30 RMK A01 T00330011  RH  086%=      5-min Rain = 0
KHA2 252133Z 04017KT 03/01 A30 RMK A01 T00320011  RH  086%=      5-min Rain = 0
KHA2 252134Z 03017KT 03/01 A30 RMK A01 T00320011  RH  086%=      5-min Rain = 0
KHA2 252135Z 03017KT 03/01 A30 RMK A01 T00320011  RH  086%=      5-min Rain = 0
KHA2 252136Z 04014KT 03/01 A30 RMK A01 T00320012  RH  087%=      5-min Rain = 0
KHA2 252137Z 04015KT 03/01 A30 RMK A01 T00330013  RH  087%=      5-min Rain = 0
KHA2 252138Z 04016KT 03/01 A30 RMK A01 T00340013  RH  086%=      5-min Rain = 0
KHA2 252139Z 04016KT 03/01 A30 RMK A01 T00340013  RH  086%=      5-min Rain = 0
KHA2 252140Z 04018KT 03/01 A2999 RMK A01 T00340012  RH  086%=      5-min Rain = 0
KHA2 252141Z 05015KT 03/01 A2999 RMK A01 T00330012  RH  086%=      5-min Rain = 0
KHA2 252142Z 05018KT 03/01 A2999 RMK A01 T00320012  RH  086%=      5-min Rain = 0
KHA2 252143Z 05015KT 03/01 A2999 RMK A01 T00310011  RH  087%=      5-min Rain = 0
KHA2 252144Z 04018KT 03/01 A2999 RMK A01 T00310012  RH  087%=      5-min Rain = 0
KHA2 252145Z 04017KT 03/01 A2999 RMK A01 T00310012  RH  087%=      5-min Rain = 0
KHA2 252146Z 04017KT 03/01 A2998 RMK A01 T00310012  RH  087%=      5-min Rain = 0
KHA2 252147Z 04014KT 03/01 A2998 RMK A01 T00300011  RH  087%=      5-min Rain = 0
KHA2 252148Z 04018KT 03/01 A2999 RMK A01 T00300012  RH  088%=      5-min Rain = 0
KHA2 252149Z 04018KT 03/01 A2999 RMK A01 T00300011  RH  088%=      5-min Rain = 0
KHA2 252150Z 04015KT 03/01 A2999 RMK A01 T00290011  RH  088%=      5-min Rain = 0
KHA2 252151Z 03016KT 03/01 A2999 RMK A01 T00290012  RH  089%=      5-min Rain = 0
KHA2 252152Z 03016KT 03/01 A2999 RMK A01 T00290011  RH  088%=      5-min Rain = 0
KHA2 252153Z 04015KT 03/01 A2999 RMK A01 T00290011  RH  088%=      5-min Rain = 0
KHA2 252154Z 04017KT 03/01 A2999 RMK A01 T00290011  RH  088%=      5-min Rain = 0
KHA2 252155Z 04016KT 03/01 A2999 RMK A01 T00280011  RH  088%=      5-min Rain = 0
KHA2 252156Z 04016KT 03/01 A2999 RMK A01 T00280011  RH  088%=      5-min Rain = 0
KHA2 252157Z 05018KT 03/01 A2998 RMK A01 T00280011  RH  089%=      5-min Rain = 0
KHA2 252158Z 05018KT 03/01 A2998 RMK A01 T00280011  RH  088%=      5-min Rain = 0
KHA2 252159Z 05016KT 03/01 A2998 RMK A01 T00270010  RH  088%=      5-min Rain = 0
KHA2 252200Z 05016KT 03/01 A2998 RMK A01 T00270010  RH  089%=      5-min Rain = 0
KHA2 252201Z 05017KT 03/01 A2998 RMK A01 T00270010  RH  089%=      5-min Rain = 0
KHA2 252202Z 04016KT 03/01 A2999 RMK A01 T00270010  RH  089%=      5-min Rain = 0
KHA2 252203Z 04017KT 03/01 A2999 RMK A01 T00270010  RH  089%=      5-min Rain = 0
KHA2 252204Z 04017KT 03/01 A2999 RMK A01 T00280010  RH  088%=      5-min Rain = 0
KHA2 252205Z 04016KT 03/01 A2999 RMK A01 T00280010  RH  088%=      5-min Rain = 0
KHA2 252206Z 03014KT 03/01 A30 RMK A01 T00290010  RH  088%=      5-min Rain = 0
KHA2 252207Z 03014KT 03/01 A30 RMK A01 T00300010  RH  087%=      5-min Rain = 0
KHA2 252208Z 02014KT 03/01 A3001 RMK A01 T00300010  RH  087%=      5-min Rain = 0
KHA2 252209Z 01015KT 03/01 A3002 RMK A01 T00300009  RH  086%=      5-min Rain = 0
KHA2 252210Z 01012KT 03/01 A3003 RMK A01 T00290008  RH  086%=      5-min Rain = 0
KHA2 252211Z 01015KT 03/01 A3002 RMK A01 T00290008  RH  086%=      5-min Rain = 0
KHA2 252212Z 02015KT 03/01 A3002 RMK A01 T00290008  RH  086%=      5-min Rain = 0
KHA2 252213Z 02017KT 03/01 A3001 RMK A01 T00280007  RH  086%=      5-min Rain = 0
KHA2 252214Z 02017KT 03/01 A3001 RMK A01 T00260006  RH  087%=      5-min Rain = 0
KHA2 252215Z 01017KT 03/01 A3001 RMK A01 T00250007  RH  088%=      5-min Rain = 0
KHA2 252216Z 03014KT 03/01 A3001 RMK A01 T00250007  RH  088%=      5-min Rain = 0
KHA2 252217Z 03014KT 03/01 A3001 RMK A01 T00260008  RH  088%=      5-min Rain = 0
KHA2 252218Z 03015KT 03/01 A3001 RMK A01 T00270008  RH  088%=      5-min Rain = 0
KHA2 252219Z 03017KT 03/01 A3001 RMK A01 T00270009  RH  088%=      5-min Rain = 0
KHA2 252220Z 03018KT 03/01 A3001 RMK A01 T00270008  RH  088%=      5-min Rain = 0
KHA2 252221Z 03017KT 03/01 A30 RMK A01 T00270008  RH  088%=      5-min Rain = 0
KHA2 252222Z 04016KT 03/01 A30 RMK A01 T00260008  RH  088%=      5-min Rain = 0
KHA2 252223Z 04016KT 03/01 A30 RMK A01 T00260007  RH  088%=      5-min Rain = 0
KHA2 252224Z 03014KT 03/01 A30 RMK A01 T00260007  RH  088%=      5-min Rain = 0
KHA2 252225Z 03013KT 03/01 A3001 RMK A01 T00260009  RH  088%=      5-min Rain = 0
KHA2 252226Z 03014KT 03/01 A3001 RMK A01 T00270008  RH  088%=      5-min Rain = 0
KHA2 252227Z 03015KT 03/01 A30 RMK A01 T00270008  RH  087%=      5-min Rain = 0
KHA2 252228Z 04016KT 03/01 A30 RMK A01 T00270007  RH  087%=      5-min Rain = 0
KHA2 252229Z 04018KT 03/01 A30 RMK A01 T00270007  RH  087%=      5-min Rain = 0
KHA2 252230Z 03015KT 03/01 A3001 RMK A01 T00270007  RH  087%=      5-min Rain = 0
KHA2 252231Z 02015KT 03/01 A3002 RMK A01 T00270007  RH  087%=      5-min Rain = 0
KHA2 252232Z 02014KT 03/01 A3003 RMK A01 T00270007  RH  087%=      5-min Rain = 0
KHA2 252233Z 02013KT 03/01 A3003 RMK A01 T00270006  RH  086%=      5-min Rain = 0
KHA2 252234Z 01014KT 03/01 A3003 RMK A01 T00260006  RH  087%=      5-min Rain = 0
KHA2 252235Z 02013KT 03/01 A3002 RMK A01 T00260006  RH  087%=      5-min Rain = 0
KHA2 252236Z 02015KT 03/01 A3002 RMK A01 T00260007  RH  087%=      5-min Rain = 0
KHA2 252237Z 02015KT 03/01 A3003 RMK A01 T00260007  RH  087%=      5-min Rain = 0
KHA2 252238Z 01014KT 03/01 A3003 RMK A01 T00250006  RH  087%=      5-min Rain = 0
KHA2 252239Z 02015KT 03/01 A3003 RMK A01 T00250006  RH  088%=      5-min Rain = 0
KHA2 252240Z 03015KT 03/01 A3003 RMK A01 T00250007  RH  088%=      5-min Rain = 0
KHA2 252241Z 02015KT 03/01 A3002 RMK A01 T00250007  RH  088%=      5-min Rain = 0
KHA2 252242Z 02016KT 03/01 A3002 RMK A01 T00250007  RH  088%=      5-min Rain = 0
KHA2 252243Z 02017KT 03/01 A3002 RMK A01 T00250007  RH  088%=      5-min Rain = 0
KHA2 252244Z 03017KT 03/01 A3002 RMK A01 T00250006  RH  088%=      5-min Rain = 0
KHA2 252245Z 03016KT 03/01 A3003 RMK A01 T00250007  RH  088%=      5-min Rain = 0
KHA2 252246Z 03017KT 03/01 A3002 RMK A01 T00250006  RH  088%=      5-min Rain = 0
KHA2 252247Z 03017KT 03/01 A3002 RMK A01 T00250006  RH  088%=      5-min Rain = 0
KHA2 252248Z 04017KT 03/01 A3002 RMK A01 T00250006  RH  088%=      5-min Rain = 0
KHA2 252249Z 03017KT 03/01 A3001 RMK A01 T00250006  RH  087%=      5-min Rain = 0
KHA2 252250Z 03016KT 02/01 A3001 RMK A01 T00240005  RH  087%=      5-min Rain = 0
KHA2 252251Z 04017KT 02/01 A3002 RMK A01 T00240005  RH  087%=      5-min Rain = 0
KHA2 252252Z 03015KT 02/01 A3002 RMK A01 T00240005  RH  087%=      5-min Rain = 0
KHA2 252253Z 04014KT 03/01 A3002 RMK A01 T00250006  RH  087%=      5-min Rain = 0
KHA2 252254Z 04014KT 03/01 A3002 RMK A01 T00260006  RH  087%=      5-min Rain = 0
KHA2 252255Z 03015KT 03/01 A3001 RMK A01 T00260006  RH  087%=      5-min Rain = 0
KHA2 252256Z 04014KT 03/01 A3001 RMK A01 T00260006  RH  086%=      5-min Rain = 0
KHA2 252257Z 03013KT 03/01 A3001 RMK A01 T00260005  RH  086%=      5-min Rain = 0
KHA2 252258Z 03016KT 03/01 A3002 RMK A01 T00260005  RH  086%=      5-min Rain = 0
KHA2 252259Z 02016KT 03/01 A3002 RMK A01 T00260006  RH  087%=      5-min Rain = 0
KHA2 252300Z 03018KT 03/01 A3002 RMK A01 T00250006  RH  088%=      5-min Rain = 0
KHA2 252301Z 03017KT 02/01 A3002 RMK A01 T00240006  RH  088%=      5-min Rain = 0
KHA2 252302Z 03016KT 02/01 A3002 RMK A01 T00230007  RH  089%=      5-min Rain = 0
KHA2 252303Z 02016KT 02/01 A3002 RMK A01 T00230007  RH  089%=      5-min Rain = 0
KHA2 252304Z 03016G21KT 02/01 A3002 RMK A01 T00230007  RH  089%=      5-min Rain = 0
KHA2 252305Z 03016KT 02/01 A3002 RMK A01 T00230007  RH  089%=      5-min Rain = 0
KHA2 252306Z 04017KT 02/01 A3002 RMK A01 T00240007  RH  089%=      5-min Rain = 0
KHA2 252307Z 03016KT 02/01 A3002 RMK A01 T00230006  RH  088%=      5-min Rain = 0
KHA2 252308Z 03017KT 02/01 A3002 RMK A01 T00230006  RH  088%=      5-min Rain = 0
KHA2 252309Z 03019KT 02/01 A3002 RMK A01 T00230006  RH  088%=      5-min Rain = 0
KHA2 252310Z 03017KT 02/01 A3002 RMK A01 T00230005  RH  088%=      5-min Rain = 0
KHA2 252311Z 04018KT 02/01 A3002 RMK A01 T00230005  RH  088%=      5-min Rain = 0
KHA2 252312Z 03017KT 02/01 A3003 RMK A01 T00230005  RH  088%=      5-min Rain = 0
KHA2 252313Z 03015KT 02/01 A3003 RMK A01 T00230006  RH  088%=      5-min Rain = 0
KHA2 252314Z 03017KT 02/01 A3003 RMK A01 T00240006  RH  088%=      5-min Rain = 0
KHA2 252315Z 03018KT 02/01 A3003 RMK A01 T00240005  RH  087%=      5-min Rain = 0
KHA2 252316Z 03016KT 02/00 A3003 RMK A01 T00230004  RH  087%=      5-min Rain = 0
KHA2 252317Z 04018KT 02/00 A3003 RMK A01 T00230004  RH  087%=      5-min Rain = 0
KHA2 252318Z 04017KT 02/01 A3003 RMK A01 T00240005  RH  087%=      5-min Rain = 0
KHA2 252319Z 04016KT 02/00 A3003 RMK A01 T00230004  RH  087%=      5-min Rain = 0
KHA2 252320Z 04018KT 02/00 A3003 RMK A01 T00230004  RH  087%=      5-min Rain = 0
KHA2 252321Z 04016KT 02/00 A3003 RMK A01 T00230004  RH  087%=      5-min Rain = 0
KHA2 252322Z 03018KT 02/00 A3003 RMK A01 T00230004  RH  088%=      5-min Rain = 0
KHA2 252323Z 03018KT 02/00 A3003 RMK A01 T00220004  RH  088%=      5-min Rain = 0
KHA2 252324Z 03018KT 02/00 A3002 RMK A01 T00220004  RH  088%=      5-min Rain = 0
KHA2 252325Z 04017KT 02/01 A3002 RMK A01 T00220005  RH  088%=      5-min Rain = 0
KHA2 252326Z 04017KT 02/01 A3002 RMK A01 T00220005  RH  088%=      5-min Rain = 0
KHA2 252327Z 04016KT 02/01 A3002 RMK A01 T00220005  RH  089%=      5-min Rain = 0
KHA2 252328Z 04015KT 02/01 A3002 RMK A01 T00210005  RH  089%=      5-min Rain = 0
KHA2 252329Z 04016KT 02/01 A3002 RMK A01 T00220006  RH  089%=      5-min Rain = 0
KHA2 252330Z 04017KT 02/01 A3002 RMK A01 T00210006  RH  089%=      5-min Rain = 0
KHA2 252331Z 04016KT 02/01 A3002 RMK A01 T00210006  RH  090%=      5-min Rain = 0
KHA2 252332Z 04017KT 02/01 A3002 RMK A01 T00210006  RH  090%=      5-min Rain = 0
KHA2 252333Z 04017KT 02/01 A3002 RMK A01 T00210006  RH  090%=      5-min Rain = 0
KHA2 252334Z 04016KT 02/01 A3002 RMK A01 T00200006  RH  090%=      5-min Rain = 0
KHA2 252335Z 04015KT 02/01 A3003 RMK A01 T00200006  RH  090%=      5-min Rain = 0
KHA2 252336Z 04014KT 02/01 A3003 RMK A01 T00200007  RH  091%=      5-min Rain = 0
KHA2 252337Z 04016KT 02/01 A3003 RMK A01 T00200006  RH  091%=      5-min Rain = 0
KHA2 252338Z 04015KT 02/01 A3003 RMK A01 T00190006  RH  091%=      5-min Rain = 0
KHA2 252339Z 04016KT 02/01 A3003 RMK A01 T00190006  RH  091%=      5-min Rain = 0
KHA2 252340Z 04015KT 02/01 A3003 RMK A01 T00190006  RH  091%=      5-min Rain = 0
KHA2 252341Z 02017KT 02/01 A3004 RMK A01 T00190006  RH  091%=      5-min Rain = 0
KHA2 252342Z 03017KT 02/01 A3003 RMK A01 T00190006  RH  091%=      5-min Rain = 0
KHA2 252343Z 03017KT 02/01 A3003 RMK A01 T00180005  RH  092%=      5-min Rain = 0
KHA2 252344Z 03018KT 02/01 A3003 RMK A01 T00170006  RH  092%=      5-min Rain = 0
KHA2 252345Z 03017KT 02/01 A3003 RMK A01 T00170006  RH  092%=      5-min Rain = 0
KHA2 252346Z 03015KT 02/01 A3003 RMK A01 T00160006  RH  093%=      5-min Rain = 0
KHA2 252347Z 03016KT 02/01 A3003 RMK A01 T00160007  RH  093%=      5-min Rain = 0
KHA2 252348Z 03016KT 02/01 A3003 RMK A01 T00160007  RH  094%=      5-min Rain = 0
KHA2 252349Z 04016KT 02/01 A3003 RMK A01 T00160007  RH  094%=      5-min Rain = 0
KHA2 252350Z 03015KT 02/01 A3003 RMK A01 T00160007  RH  094%=      5-min Rain = 0
KHA2 252351Z 03017KT 02/01 A3003 RMK A01 T00150007  RH  094%=      5-min Rain = 0
KHA2 252352Z 04016KT 02/01 A3003 RMK A01 T00150007  RH  095%=      5-min Rain = 0
KHA2 252353Z 03015KT 02/01 A3003 RMK A01 T00150008  RH  095%=      5-min Rain = 0
KHA2 252354Z 04018KT 02/01 A3003 RMK A01 T00150008  RH  095%=      5-min Rain = 0
KHA2 252355Z 04017KT 02/01 A3003 RMK A01 T00150007  RH  095%=      5-min Rain = 0
KHA2 252356Z 04016KT 02/01 A3003 RMK A01 T00150007  RH  095%=      5-min Rain = 0
KHA2 252357Z 03017KT 02/01 A3003 RMK A01 T00150007  RH  095%=      5-min Rain = 0
KHA2 252358Z 04016KT 01/01 A3003 RMK A01 T00140006  RH  095%=      5-min Rain = 0
KHA2 252359Z 04018KT 01/01 A3003 RMK A01 T00140006  RH  095%=      5-min Rain = 0
KHA2 260000Z 04018KT 01/01 A3002 RMK A01 T00130006  RH  095%=      5-min Rain = 0
KHA2 260001Z 04017KT 01/01 A3003 RMK A01 T00130006  RH  095%=      5-min Rain = 0
KHA2 260002Z 05017KT 01/01 A3003 RMK A01 T00130006  RH  095%=      5-min Rain = 0
KHA2 260003Z 04015KT 01/01 A3003 RMK A01 T00130006  RH  095%=      5-min Rain = 0
KHA2 260004Z 05017KT 01/01 A3003 RMK A01 T00130006  RH  095%=      5-min Rain = 0
KHA2 260005Z 05016KT 01/01 A3003 RMK A01 T00130006  RH  095%=      5-min Rain = 0
KHA2 260006Z 05014KT 01/01 A3003 RMK A01 T00130006  RH  095%=      5-min Rain = 0
KHA2 260007Z 05012KT 01/01 A3003 RMK A01 T00130007  RH  096%=      5-min Rain = 0
KHA2 260008Z 05014KT 01/01 A3003 RMK A01 T00130007  RH  096%=      5-min Rain = 0
KHA2 260009Z 05014KT 01/01 A3003 RMK A01 T00130007  RH  096%=      5-min Rain = 0
KHA2 260010Z 05016KT 01/01 A3002 RMK A01 T00120006  RH  096%=      5-min Rain = 0
KHA2 260011Z 05016KT 01/01 A3002 RMK A01 T00120006  RH  096%=      5-min Rain = 0
KHA2 260012Z 05015KT 01/01 A3003 RMK A01 T00120006  RH  096%=      5-min Rain = 0
KHA2 260013Z 04018KT 01/01 A3003 RMK A01 T00120006  RH  096%=      5-min Rain = 0
KHA2 260014Z 04016KT 01/01 A3003 RMK A01 T00120006  RH  096%=      5-min Rain = 0
KHA2 260015Z 04018KT 01/01 A3002 RMK A01 T00120006  RH  096%=      5-min Rain = 0
KHA2 260016Z 04014KT 01/01 A3002 RMK A01 T00110005  RH  096%=      5-min Rain = 0
KHA2 260017Z 05016KT 01/01 A3002 RMK A01 T00110005  RH  096%=      5-min Rain = 0
KHA2 260018Z 05016KT 01/01 A3003 RMK A01 T00110005  RH  096%=      5-min Rain = 0
KHA2 260019Z 05014KT 01/01 A3003 RMK A01 T00110005  RH  096%=      5-min Rain = 0
KHA2 260020Z 05015KT 01/01 A3003 RMK A01 T00100005  RH  096%=      5-min Rain = 0
KHA2 260021Z 05016KT 01/01 A3002 RMK A01 T00110005  RH  096%=      5-min Rain = 0
KHA2 260022Z 05018KT 01/00 A3002 RMK A01 T00090004  RH  096%=      5-min Rain = 0
KHA2 260023Z 05017KT 01/00 A3002 RMK A01 T00090003  RH  096%=      5-min Rain = 0
KHA2 260024Z 06017KT 01/00 A3002 RMK A01 T00080002  RH  096%=      5-min Rain = 0
KHA2 260025Z 06016KT 01/00 A3002 RMK A01 T00080002  RH  096%=      5-min Rain = 0
KHA2 260026Z 06017KT 01/00 A3001 RMK A01 T00080002  RH  096%=      5-min Rain = 0
KHA2 260027Z 06017KT 01/00 A3001 RMK A01 T00080001  RH  096%=      5-min Rain = 0
KHA2 260028Z 05016KT 01/00 A3002 RMK A01 T00080001  RH  096%=      5-min Rain = 0
KHA2 260029Z 06017KT 01/00 A3002 RMK A01 T00080002  RH  096%=      5-min Rain = 0
KHA2 260030Z 06016KT 01/00 A3002 RMK A01 T00080002  RH  096%=      5-min Rain = 0
KHA2 260031Z 05014KT 01/00 A3002 RMK A01 T00080001  RH  096%=      5-min Rain = 0
KHA2 260032Z 05015KT 01/00 A3003 RMK A01 T00080002  RH  096%=      5-min Rain = 0
KHA2 260033Z 05016KT 01/00 A3003 RMK A01 T00080002  RH  096%=      5-min Rain = 0
KHA2 260034Z 05015KT 01/00 A3003 RMK A01 T00080002  RH  096%=      5-min Rain = 0
KHA2 260035Z 05016KT 01/00 A3003 RMK A01 T00090003  RH  096%=      5-min Rain = 0
KHA2 260036Z 05016KT 01/00 A3004 RMK A01 T00090003  RH  096%=      5-min Rain = 0
KHA2 260037Z 04015KT 01/00 A3004 RMK A01 T00090003  RH  096%=      5-min Rain = 0
KHA2 260038Z 04013KT 01/00 A3004 RMK A01 T00090003  RH  096%=      5-min Rain = 0
KHA2 260039Z 04014KT 01/00 A3005 RMK A01 T00090003  RH  096%=      5-min Rain = 0
KHA2 260040Z 04014KT 01/00 A3005 RMK A01 T00090003  RH  096%=      5-min Rain = 0
KHA2 260041Z 04015KT 01/00 A3005 RMK A01 T00100003  RH  096%=      5-min Rain = 0
KHA2 260042Z 04016KT 01/00 A3004 RMK A01 T00100004  RH  096%=      5-min Rain = 0
KHA2 260043Z 04016KT 01/00 A3004 RMK A01 T00100003  RH  096%=      5-min Rain = 0
KHA2 260044Z 04015KT 01/00 A3004 RMK A01 T00100003  RH  096%=      5-min Rain = 0
KHA2 260045Z 04014KT 01/00 A3004 RMK A01 T00100004  RH  096%=      5-min Rain = 0
KHA2 260046Z 04015KT 01/00 A3004 RMK A01 T00100004  RH  096%=      5-min Rain = 0
KHA2 260047Z 04017KT 01/00 A3004 RMK A01 T00090003  RH  096%=      5-min Rain = 0
KHA2 260048Z 04015KT 01/00 A3005 RMK A01 T00090002  RH  095%=      5-min Rain = 0
KHA2 260049Z 04015KT 01/00 A3005 RMK A01 T00090002  RH  096%=      5-min Rain = 0
KHA2 260050Z 04014KT 01/00 A3005 RMK A01 T00090003  RH  096%=      5-min Rain = 0
KHA2 260051Z 04016KT 01/00 A3005 RMK A01 T00090003  RH  096%=      5-min Rain = 0
KHA2 260052Z 03016KT 01/00 A3005 RMK A01 T00090002  RH  096%=      5-min Rain = 0
KHA2 260053Z 04015KT 01/00 A3005 RMK A01 T00090002  RH  095%=      5-min Rain = 0
KHA2 260054Z 04015KT 01/00 A3005 RMK A01 T00090002  RH  095%=      5-min Rain = 0
KHA2 260055Z 04016KT 01/00 A3005 RMK A01 T00090002  RH  095%=      5-min Rain = 0
KHA2 260056Z 03017KT 01/00 A3006 RMK A01 T00090003  RH  095%=      5-min Rain = 0
KHA2 260057Z 03015KT 01/00 A3006 RMK A01 T00090002  RH  095%=      5-min Rain = 0
KHA2 260058Z 03014KT 01/00 A3006 RMK A01 T00090002  RH  095%=      5-min Rain = 0
KHA2 260059Z 03016KT 01/00 A3006 RMK A01 T00090002  RH  095%=      5-min Rain = 0
KHA2 260100Z 03016KT 01/00 A3007 RMK A01 T00090002  RH  095%=      5-min Rain = 0
KHA2 260101Z 03017KT 01/00 A3007 RMK A01 T00090002  RH  095%=      5-min Rain = 0
KHA2 260102Z 03018KT 01/00 A3007 RMK A01 T00080001  RH  095%=      5-min Rain = 0
KHA2 260103Z 03015G21KT 01/00 A3007 RMK A01 T00080001  RH  095%=      5-min Rain = 0
KHA2 260104Z 03018KT 01/00 A3007 RMK A01 T00080001  RH  095%=      5-min Rain = 0
KHA2 260105Z 03017KT 01/00 A3006 RMK A01 T00070000  RH  095%=      5-min Rain = 0
KHA2 260106Z 03020KT 01/00 A3006 RMK A01 T000700-0  RH  095%=      5-min Rain = 0
KHA2 260107Z 04018KT 01/M00 A3006 RMK A01 T00071001  RH  095%=      5-min Rain = 0
KHA2 260108Z 04016KT 01/M00 A3006 RMK A01 T00071001  RH  095%=      5-min Rain = 0
KHA2 260109Z 04018G23KT 01/M00 A3006 RMK A01 T00061001  RH  095%=      5-min Rain = 0
KHA2 260110Z 04019KT 01/M00 A3006 RMK A01 T00061002  RH  095%=      5-min Rain = 0
KHA2 260111Z 04018KT 01/M00 A3006 RMK A01 T00061002  RH  094%=      5-min Rain = 0
KHA2 260112Z 04018KT 01/M00 A3006 RMK A01 T00061002  RH  094%=      5-min Rain = 0
KHA2 260113Z 03018KT 01/M00 A3007 RMK A01 T00061002  RH  095%=      5-min Rain = 0
KHA2 260114Z 04017KT 01/M00 A3007 RMK A01 T00061002  RH  094%=      5-min Rain = 0
KHA2 260115Z 04015KT 01/M00 A3006 RMK A01 T00051003  RH  095%=      5-min Rain = 0
KHA2 260116Z 04018KT 01/M00 A3006 RMK A01 T00051003  RH  095%=      5-min Rain = 0
KHA2 260117Z 04017KT 01/M00 A3006 RMK A01 T00051003  RH  095%=      5-min Rain = 0
KHA2 260118Z 04018KT 01/M00 A3006 RMK A01 T00051003  RH  094%=      5-min Rain = 0
KHA2 260119Z 04016KT 00/M00 A3006 RMK A01 T00041004  RH  094%=      5-min Rain = 0
KHA2 260120Z 04015KT 01/M00 A3006 RMK A01 T00051003  RH  094%=      5-min Rain = 0
KHA2 260121Z 04017KT 00/M00 A3006 RMK A01 T00041004  RH  094%=      5-min Rain = 0
KHA2 260122Z 04017KT 01/M00 A3006 RMK A01 T00051003  RH  094%=      5-min Rain = 0
KHA2 260123Z 05016KT 01/M00 A3006 RMK A01 T00051003  RH  094%=      5-min Rain = 0
KHA2 260124Z 05016KT 00/M00 A3006 RMK A01 T00041004  RH  094%=      5-min Rain = 0
KHA2 260125Z 05016KT 00/M00 A3006 RMK A01 T00041004  RH  094%=      5-min Rain = 0
KHA2 260126Z 05018KT 00/M01 A3006 RMK A01 T00031005  RH  094%=      5-min Rain = 0
KHA2 260127Z 05017KT 00/M01 A3006 RMK A01 T00031005  RH  094%=      5-min Rain = 0
KHA2 260128Z 05017KT 00/M01 A3006 RMK A01 T00031006  RH  094%=      5-min Rain = 0
KHA2 260129Z 04016KT 00/M01 A3007 RMK A01 T00021006  RH  094%=      5-min Rain = 0
KHA2 260130Z 04017KT 00/M01 A3007 RMK A01 T00021005  RH  095%=      5-min Rain = 0
KHA2 260131Z 04016KT 00/M01 A3006 RMK A01 T00021005  RH  095%=      5-min Rain = 0
KHA2 260132Z 04015G20KT 00/M01 A3006 RMK A01 T00021005  RH  095%=      5-min Rain = 0
KHA2 260133Z 04016KT 00/M01 A3006 RMK A01 T00021005  RH  095%=      5-min Rain = 0
KHA2 260134Z 04015KT 00/M01 A3006 RMK A01 T00021005  RH  095%=      5-min Rain = 0
KHA2 260135Z 04014KT 00/M01 A3006 RMK A01 T00021005  RH  095%=      5-min Rain = 0
KHA2 260136Z 04014KT 00/M01 A3007 RMK A01 T00021005  RH  095%=      5-min Rain = 0
KHA2 260137Z 04016KT 00/M00 A3007 RMK A01 T00021004  RH  095%=      5-min Rain = 0
KHA2 260138Z 04015KT 00/M01 A3007 RMK A01 T00021005  RH  095%=      5-min Rain = 0
KHA2 260139Z 04016KT 00/M01 A3007 RMK A01 T00021005  RH  095%=      5-min Rain = 0
KHA2 260140Z 04017KT 00/M01 A3007 RMK A01 T00021005  RH  095%=      5-min Rain = 0
KHA2 260141Z 05017KT 00/M01 A3007 RMK A01 T00011005  RH  095%=      5-min Rain = 0
KHA2 260142Z 05017KT 00/M01 A3006 RMK A01 T00011005  RH  095%=      5-min Rain = 0
KHA2 260143Z 05019KT 00/M01 A3006 RMK A01 T00011006  RH  095%=      5-min Rain = 0
KHA2 260144Z 05018KT 00/M01 A3006 RMK A01 T00011006  RH  095%=      5-min Rain = 0
KHA2 260145Z 06017KT 00/01 A3005 RMK A01 T000000-7  RH  095%=      5-min Rain = 0
KHA2 260146Z 06018KT 00/01 A3005 RMK A01 T000000-7  RH  095%=      5-min Rain = 0
KHA2 260147Z 05018KT 00/01 A3005 RMK A01 T00-000-8  RH  095%=      5-min Rain = 0
KHA2 260148Z 05016KT 00/01 A3005 RMK A01 T00-000-7  RH  095%=      5-min Rain = 0
KHA2 260149Z 05016KT 00/01 A3005 RMK A01 T00-000-7  RH  095%=      5-min Rain = 0
KHA2 260150Z 05016KT 00/01 A3006 RMK A01 T00-000-7  RH  095%=      5-min Rain = 0
KHA2 260151Z 04017KT 00/01 A3006 RMK A01 T00-000-6  RH  096%=      5-min Rain = 0
KHA2 260152Z 04016KT M00/M01 A3006 RMK A01 T10011007  RH  096%=      5-min Rain = 0
KHA2 260153Z 04015G20KT 00/01 A3007 RMK A01 T00-000-6  RH  096%=      5-min Rain = 0
KHA2 260154Z 04019KT 00/01 A3007 RMK A01 T000000-6  RH  096%=      5-min Rain = 0
KHA2 260155Z 03018KT M00/M01 A3008 RMK A01 T10011007  RH  096%=      5-min Rain = 0
KHA2 260156Z 04018KT M00/M01 A3008 RMK A01 T10011007  RH  095%=      5-min Rain = 0
KHA2 260157Z 04015KT M00/M01 A3008 RMK A01 T10011008  RH  095%=      5-min Rain = 0
KHA2 260158Z 04017KT M00/M01 A3008 RMK A01 T10011008  RH  095%=      5-min Rain = 0
KHA2 260159Z 04018KT M00/M01 A3008 RMK A01 T10011008  RH  095%=      5-min Rain = 0
KHA2 260200Z 04017KT M00/M01 A3008 RMK A01 T10011009  RH  095%=      5-min Rain = 0
KHA2 260201Z 04016KT M00/M01 A3008 RMK A01 T10011009  RH  095%=      5-min Rain = 0
KHA2 260202Z 04015KT M00/M01 A3008 RMK A01 T10011009  RH  095%=      5-min Rain = 0
KHA2 260203Z 03015KT M00/M01 A3008 RMK A01 T10011009  RH  095%=      5-min Rain = 0
KHA2 260204Z 04015KT M00/M01 A3008 RMK A01 T10011009  RH  095%=      5-min Rain = 0
KHA2 260205Z 04017KT M00/M01 A3008 RMK A01 T10011009  RH  095%=      5-min Rain = 0
KHA2 260206Z 04018KT M00/M01 A3008 RMK A01 T10011009  RH  094%=      5-min Rain = 0
KHA2 260207Z 04020KT M00/M01 A3008 RMK A01 T10011010  RH  094%=      5-min Rain = 0
KHA2 260208Z 04018KT M00/M01 A3008 RMK A01 T10011010  RH  094%=      5-min Rain = 0
KHA2 260209Z 04017KT M00/M01 A3008 RMK A01 T10011010  RH  094%=      5-min Rain = 0
KHA2 260210Z 04017KT M00/M01 A3009 RMK A01 T10011010  RH  094%=      5-min Rain = 0
KHA2 260211Z 04017KT M00/M01 A3009 RMK A01 T10011011  RH  093%=      5-min Rain = 0
KHA2 260212Z 04015KT M00/M01 A3009 RMK A01 T10011011  RH  093%=      5-min Rain = 0
KHA2 260213Z 04016KT M00/M01 A3009 RMK A01 T10011010  RH  093%=      5-min Rain = 0
KHA2 260214Z 04015KT 00/01 A3009 RMK A01 T00-00-10  RH  093%=      5-min Rain = 0
KHA2 260215Z 04015KT 00/01 A3009 RMK A01 T00-00-10  RH  093%=      5-min Rain = 0
KHA2 260216Z 04015KT 00/01 A3009 RMK A01 T00-00-10  RH  093%=      5-min Rain = 0
KHA2 260217Z 04013KT M00/M01 A3009 RMK A01 T10011011  RH  093%=      5-min Rain = 0
KHA2 260218Z 04013KT M00/M01 A3009 RMK A01 T10011010  RH  093%=      5-min Rain = 0
KHA2 260219Z 03012KT 00/01 A301 RMK A01 T00-000-9  RH  094%=      5-min Rain = 0
KHA2 260220Z 03014KT 00/01 A301 RMK A01 T000000-8  RH  094%=      5-min Rain = 0
KHA2 260221Z 03016KT 00/01 A301 RMK A01 T000000-8  RH  094%=      5-min Rain = 0
KHA2 260222Z 03016KT 00/01 A301 RMK A01 T000000-8  RH  095%=      5-min Rain = 0
KHA2 260223Z 03015G20KT 00/01 A3009 RMK A01 T00-000-8  RH  095%=      5-min Rain = 0
KHA2 260224Z 03017KT 00/01 A3009 RMK A01 T00-000-8  RH  095%=      5-min Rain = 0
KHA2 260225Z 04018KT M00/M01 A3009 RMK A01 T10011008  RH  095%=      5-min Rain = 0
KHA2 260226Z 03019KT M00/M01 A3009 RMK A01 T10021010  RH  094%=      5-min Rain = 0
KHA2 260227Z 03016KT M00/M01 A3009 RMK A01 T10021011  RH  094%=      5-min Rain = 0
KHA2 260228Z 03016KT M00/M01 A301 RMK A01 T10021010  RH  094%=      5-min Rain = 0
KHA2 260229Z 03018KT M00/M01 A301 RMK A01 T10021010  RH  095%=      5-min Rain = 0
KHA2 260230Z 03020KT M00/M01 A3009 RMK A01 T10031011  RH  094%=      5-min Rain = 0
KHA2 260231Z 03017G22KT M00/M01 A3009 RMK A01 T10031011  RH  094%=      5-min Rain = 0
KHA2 260232Z 03018KT M00/M01 A3009 RMK A01 T10031011  RH  094%=      5-min Rain = 0
KHA2 260233Z 03017KT M00/M01 A3009 RMK A01 T10031011  RH  094%=      5-min Rain = 0
KHA2 260234Z 03018KT M00/M01 A3009 RMK A01 T10031012  RH  094%=      5-min Rain = 0
KHA2 260235Z 03018KT M00/M01 A3009 RMK A01 T10041012  RH  094%=      5-min Rain = 0
KHA2 260236Z 03017KT M00/M01 A3009 RMK A01 T10041012  RH  094%=      5-min Rain = 0
KHA2 260237Z 03018KT M00/M01 A3009 RMK A01 T10041012  RH  094%=      5-min Rain = 0
KHA2 260238Z 03020KT M00/M01 A3009 RMK A01 T10041012  RH  094%=      5-min Rain = 0
KHA2 260239Z 03019KT M00/M01 A3009 RMK A01 T10041013  RH  094%=      5-min Rain = 0
KHA2 260240Z 03015KT M00/M01 A3009 RMK A01 T10041012  RH  094%=      5-min Rain = 0
KHA2 260241Z 03016KT M00/M01 A3009 RMK A01 T10041012  RH  094%=      5-min Rain = 0
KHA2 260242Z 04016KT M00/M01 A3009 RMK A01 T10041011  RH  094%=      5-min Rain = 0
KHA2 260243Z 03014KT M00/M01 A3009 RMK A01 T10041012  RH  095%=      5-min Rain = 0
KHA2 260244Z 03017KT M00/M01 A3009 RMK A01 T10041011  RH  095%=      5-min Rain = 0
KHA2 260245Z 04018KT M00/M01 A3009 RMK A01 T10041012  RH  094%=      5-min Rain = 0
KHA2 260246Z 04020KT M00/M01 A301 RMK A01 T10041012  RH  094%=      5-min Rain = 0
KHA2 260247Z 04019KT M00/M01 A301 RMK A01 T10041013  RH  094%=      5-min Rain = 0
KHA2 260248Z 03019KT M01/M01 A301 RMK A01 T10051013  RH  094%=      5-min Rain = 0
KHA2 260249Z 03016KT M00/M01 A301 RMK A01 T10041013  RH  094%=      5-min Rain = 0
KHA2 260250Z 03018KT M00/M01 A301 RMK A01 T10041013  RH  094%=      5-min Rain = 0
KHA2 260251Z 03019KT M01/M01 A301 RMK A01 T10051013  RH  094%=      5-min Rain = 0
KHA2 260252Z 04017KT M01/M01 A3011 RMK A01 T10051014  RH  094%=      5-min Rain = 0
KHA2 260253Z 04015KT M01/M01 A3011 RMK A01 T10051013  RH  094%=      5-min Rain = 0
KHA2 260254Z 03016KT M01/M01 A3011 RMK A01 T10051013  RH  094%=      5-min Rain = 0
KHA2 260255Z 03016KT M01/M01 A3011 RMK A01 T10051013  RH  094%=      5-min Rain = 0
KHA2 260256Z 03015KT M01/M01 A3011 RMK A01 T10051013  RH  094%=      5-min Rain = 0
KHA2 260257Z 03017KT M01/M01 A3011 RMK A01 T10051013  RH  094%=      5-min Rain = 0
KHA2 260258Z 03016KT M01/M01 A3011 RMK A01 T10051013  RH  095%=      5-min Rain = 0
KHA2 260259Z 03018KT M01/M01 A3011 RMK A01 T10051012  RH  095%=      5-min Rain = 0
KHA2 260300Z 03019KT M01/M01 A3012 RMK A01 T10051013  RH  095%=      5-min Rain = 0
KHA2 260301Z 03020KT M01/M01 A3012 RMK A01 T10061013  RH  095%=      5-min Rain = 0
KHA2 260302Z 02019KT M01/M01 A3012 RMK A01 T10061014  RH  095%=      5-min Rain = 0
KHA2 260303Z 03020KT M01/M01 A3012 RMK A01 T10061014  RH  095%=      5-min Rain = 0
KHA2 260304Z 03019KT M01/M01 A3012 RMK A01 T10071014  RH  095%=      5-min Rain = 0
KHA2 260305Z 03015KT M01/M01 A3012 RMK A01 T10071014  RH  095%=      5-min Rain = 0
KHA2 260306Z 03018KT M01/M01 A3012 RMK A01 T10071014  RH  095%=      5-min Rain = 0
KHA2 260307Z 03019KT M01/M01 A3012 RMK A01 T10071014  RH  095%=      5-min Rain = 0
KHA2 260308Z 03015KT M01/M01 A3012 RMK A01 T10071014  RH  095%=      5-min Rain = 0
KHA2 260309Z 03018KT M01/M01 A3012 RMK A01 T10071014  RH  095%=      5-min Rain = 0
KHA2 260310Z 03018KT M01/M01 A3012 RMK A01 T10081014  RH  095%=      5-min Rain = 0
KHA2 260311Z 02018KT M01/M01 A3012 RMK A01 T10081014  RH  095%=      5-min Rain = 0
KHA2 260312Z 02018KT M01/M02 A3013 RMK A01 T10081015  RH  095%=      5-min Rain = 0
KHA2 260313Z 02016KT M01/M02 A3013 RMK A01 T10081015  RH  095%=      5-min Rain = 0
KHA2 260314Z 02015KT M01/M02 A3013 RMK A01 T10081015  RH  096%=      5-min Rain = 0
KHA2 260315Z 02016KT M01/M01 A3013 RMK A01 T10081014  RH  096%=      5-min Rain = 0
KHA2 260316Z 02017KT M01/M02 A3014 RMK A01 T10091015  RH  096%=      5-min Rain = 0
KHA2 260317Z 02019G24KT M01/M02 A3013 RMK A01 T10091015  RH  096%=      5-min Rain = 0
KHA2 260318Z 02021KT M01/M02 A3013 RMK A01 T10101016  RH  096%=      5-min Rain = 0
KHA2 260319Z 03020KT M01/M02 A3013 RMK A01 T10101016  RH  096%=      5-min Rain = 0
KHA2 260320Z 03017KT M01/M02 A3013 RMK A01 T10101016  RH  096%=      5-min Rain = 0
KHA2 260321Z 02015KT M01/M02 A3013 RMK A01 T10101016  RH  096%=      5-min Rain = 0
KHA2 260322Z 02015KT M01/M02 A3013 RMK A01 T10091015  RH  096%=      5-min Rain = 0
KHA2 260323Z 03015KT M01/M02 A3013 RMK A01 T10091015  RH  096%=      5-min Rain = 0
KHA2 260324Z 03017KT M01/M02 A3014 RMK A01 T10091015  RH  096%=      5-min Rain = 0
KHA2 260325Z 02018G23KT M01/M02 A3013 RMK A01 T10091015  RH  096%=      5-min Rain = 0
KHA2 260326Z 02019KT M01/M02 A3013 RMK A01 T10101016  RH  096%=      5-min Rain = 0
KHA2 260327Z 03018G23KT M01/M02 A3014 RMK A01 T10101017  RH  095%=      5-min Rain = 0
KHA2 260328Z 03018KT M01/M02 A3013 RMK A01 T10101017  RH  095%=      5-min Rain = 0
KHA2 260329Z 03019KT M01/M02 A3013 RMK A01 T10101017  RH  095%=      5-min Rain = 0
KHA2 260330Z 03017KT M01/M02 A3013 RMK A01 T10111017  RH  095%=      5-min Rain = 0
KHA2 260331Z 03018G24KT M01/M02 A3013 RMK A01 T10101017  RH  095%=      5-min Rain = 0
KHA2 260332Z 03019KT M01/M02 A3013 RMK A01 T10111017  RH  095%=      5-min Rain = 0
KHA2 260333Z 03017KT M01/M02 A3013 RMK A01 T10111018  RH  095%=      5-min Rain = 0
KHA2 260334Z 02019KT M01/M02 A3014 RMK A01 T10111018  RH  095%=      5-min Rain = 0
KHA2 260335Z 02017KT M01/M02 A3014 RMK A01 T10111018  RH  095%=      5-min Rain = 0
KHA2 260336Z 02016KT M01/M02 A3015 RMK A01 T10101018  RH  095%=      5-min Rain = 0
KHA2 260337Z 02015KT M01/M02 A3015 RMK A01 T10111018  RH  095%=      5-min Rain = 0
KHA2 260338Z 02013KT M01/M02 A3015 RMK A01 T10101017  RH  095%=      5-min Rain = 0
KHA2 260339Z 01016KT M01/M02 A3015 RMK A01 T10111018  RH  095%=      5-min Rain = 0
KHA2 260340Z 01016KT M01/M02 A3015 RMK A01 T10111018  RH  095%=      5-min Rain = 0
KHA2 260341Z 01017G22KT M01/M02 A3015 RMK A01 T10121018  RH  095%=      5-min Rain = 0
KHA2 260342Z 01020KT M01/M02 A3015 RMK A01 T10121018  RH  096%=      5-min Rain = 0
KHA2 260343Z 02020KT M01/M02 A3015 RMK A01 T10131019  RH  096%=      5-min Rain = 0
KHA2 260344Z 02019KT M01/M02 A3015 RMK A01 T10131019  RH  096%=      5-min Rain = 0
KHA2 260345Z 02017KT M01/M02 A3015 RMK A01 T10131019  RH  096%=      5-min Rain = 0
KHA2 260346Z 02015G20KT M01/M02 A3015 RMK A01 T10131019  RH  096%=      5-min Rain = 0
KHA2 260347Z 02015G20KT M01/M02 A3015 RMK A01 T10131019  RH  096%=      5-min Rain = 0
KHA2 260348Z 02017KT M01/M02 A3015 RMK A01 T10131018  RH  096%=      5-min Rain = 0
KHA2 260349Z 01016KT M01/M02 A3016 RMK A01 T10131018  RH  096%=      5-min Rain = 0
KHA2 260350Z 01017KT M01/M02 A3016 RMK A01 T10131018  RH  096%=      5-min Rain = 0
KHA2 260351Z 02021KT M01/M02 A3015 RMK A01 T10141019  RH  096%=      5-min Rain = 0
KHA2 260352Z 02018KT M02/M02 A3015 RMK A01 T10151020  RH  096%=      5-min Rain = 0
KHA2 260353Z 02018KT M02/M02 A3015 RMK A01 T10151020  RH  096%=      5-min Rain = 0
KHA2 260354Z 02019KT M02/M02 A3015 RMK A01 T10151020  RH  096%=      5-min Rain = 0
KHA2 260355Z 01018KT M02/M02 A3016 RMK A01 T10151020  RH  096%=      5-min Rain = 0
KHA2 260356Z 01018G23KT M02/M02 A3016 RMK A01 T10161021  RH  096%=      5-min Rain = 0
KHA2 260357Z 01016KT M02/M02 A3017 RMK A01 T10161022  RH  096%=      5-min Rain = 0
KHA2 260358Z 01015KT M02/M02 A3017 RMK A01 T10161022  RH  096%=      5-min Rain = 0
KHA2 260359Z 02020KT M02/M02 A3016 RMK A01 T10161022  RH  096%=      5-min Rain = 0
KHA2 260400Z 02018KT M02/M02 A3016 RMK A01 T10161022  RH  096%=      5-min Rain = 0
KHA2 260401Z 02018KT M02/M02 A3016 RMK A01 T10161022  RH  096%=      5-min Rain = 0
KHA2 260402Z 02020KT M02/M02 A3016 RMK A01 T10161022  RH  096%=      5-min Rain = 0
KHA2 260403Z 02019KT M02/M02 A3016 RMK A01 T10161022  RH  096%=      5-min Rain = 0
KHA2 260404Z 02017KT M02/M02 A3016 RMK A01 T10161022  RH  096%=      5-min Rain = 0
KHA2 260405Z 02018KT M02/M02 A3016 RMK A01 T10161022  RH  096%=      5-min Rain = 0
KHA2 260406Z 02018KT M02/M02 A3016 RMK A01 T10161022  RH  096%=      5-min Rain = 0
KHA2 260407Z 03018KT M02/M02 A3016 RMK A01 T10161022  RH  096%=      5-min Rain = 0
KHA2 260408Z 03018KT M02/M02 A3016 RMK A01 T10161022  RH  096%=      5-min Rain = 0
KHA2 260409Z 03018KT M02/M02 A3016 RMK A01 T10161022  RH  096%=      5-min Rain = 0
KHA2 260410Z 03019KT M02/M02 A3016 RMK A01 T10161022  RH  095%=      5-min Rain = 0
KHA2 260411Z 03019KT M02/M02 A3016 RMK A01 T10161023  RH  095%=      5-min Rain = 0
KHA2 260412Z 03020KT M02/M02 A3015 RMK A01 T10161023  RH  095%=      5-min Rain = 0
KHA2 260413Z 03018KT M02/M02 A3015 RMK A01 T10161024  RH  095%=      5-min Rain = 0
KHA2 260414Z 03018KT M02/M02 A3015 RMK A01 T10161023  RH  095%=      5-min Rain = 0
KHA2 260415Z 03016KT M02/M02 A3015 RMK A01 T10161023  RH  095%=      5-min Rain = 0
KHA2 260416Z 04016KT M02/M02 A3015 RMK A01 T10161022  RH  095%=      5-min Rain = 0
KHA2 260417Z 03019KT M02/M02 A3015 RMK A01 T10151022  RH  095%=      5-min Rain = 0
KHA2 260418Z 03019G24KT M02/M02 A3015 RMK A01 T10161022  RH  095%=      5-min Rain = 0
KHA2 260419Z 03021KT M02/M02 A3015 RMK A01 T10161023  RH  095%=      5-min Rain = 0
KHA2 260420Z 03019KT M02/M02 A3014 RMK A01 T10171024  RH  095%=      5-min Rain = 0
KHA2 260421Z 03019KT M02/M02 A3014 RMK A01 T10171024  RH  095%=      5-min Rain = 0
KHA2 260422Z 04018KT M02/M02 A3014 RMK A01 T10171024  RH  095%=      5-min Rain = 0
KHA2 260423Z 04018KT M02/M02 A3013 RMK A01 T10171024  RH  095%=      5-min Rain = 0
KHA2 260424Z 04019KT M02/M02 A3014 RMK A01 T10171024  RH  095%=      5-min Rain = 0
KHA2 260425Z 04016KT M02/M02 A3014 RMK A01 T10171024  RH  095%=      5-min Rain = 0
KHA2 260426Z 04019KT M02/M02 A3013 RMK A01 T10171024  RH  095%=      5-min Rain = 0
KHA2 260427Z 04018KT M02/M02 A3013 RMK A01 T10171024  RH  095%=      5-min Rain = 0
KHA2 260428Z 04018KT M02/M02 A3013 RMK A01 T10171024  RH  095%=      5-min Rain = 0
KHA2 260429Z 04020G25KT M02/M02 A3013 RMK A01 T10171024  RH  095%=      5-min Rain = 0
KHA2 260430Z 03018KT M02/M02 A3013 RMK A01 T10181024  RH  095%=      5-min Rain = 0
KHA2 260431Z 03018KT M02/M02 A3013 RMK A01 T10181024  RH  095%=      5-min Rain = 0
KHA2 260432Z 03017KT M02/M02 A3014 RMK A01 T10181024  RH  095%=      5-min Rain = 0
KHA2 260433Z 03018KT M02/M02 A3014 RMK A01 T10181024  RH  096%=      5-min Rain = 0
KHA2 260434Z 02015KT M02/M03 A3014 RMK A01 T10181025  RH  096%=      5-min Rain = 0
KHA2 260435Z 03016KT M02/M02 A3014 RMK A01 T10181024  RH  096%=      5-min Rain = 0
KHA2 260436Z 03016KT M02/M02 A3014 RMK A01 T10181024  RH  096%=      5-min Rain = 0
KHA2 260437Z 04017KT M02/M02 A3013 RMK A01 T10181024  RH  096%=      5-min Rain = 0
KHA2 260438Z 04017KT M02/M02 A3013 RMK A01 T10181024  RH  096%=      5-min Rain = 0
KHA2 260439Z 04019KT M02/M02 A3013 RMK A01 T10181024  RH  096%=      5-min Rain = 0
KHA2 260440Z 04021KT M02/M03 A3013 RMK A01 T10191025  RH  096%=      5-min Rain = 0
KHA2 260441Z 04021KT M02/M03 A3013 RMK A01 T10191025  RH  096%=      5-min Rain = 0
KHA2 260442Z 03020KT M02/M03 A3012 RMK A01 T10201026  RH  095%=      5-min Rain = 0
KHA2 260443Z 03019KT M02/M03 A3013 RMK A01 T10201026  RH  095%=      5-min Rain = 0
KHA2 260444Z 03020KT M02/M03 A3013 RMK A01 T10201026  RH  095%=      5-min Rain = 0
KHA2 260445Z 03017KT M02/M03 A3014 RMK A01 T10201026  RH  096%=      5-min Rain = 0
KHA2 260446Z 02015KT M02/M03 A3015 RMK A01 T10201026  RH  096%=      5-min Rain = 0
KHA2 260447Z 02016KT M02/M03 A3016 RMK A01 T10201026  RH  096%=      5-min Rain = 0
KHA2 260448Z 02016KT M02/M03 A3017 RMK A01 T10201025  RH  096%=      5-min Rain = 0
KHA2 260449Z 02016KT M02/M03 A3017 RMK A01 T10191025  RH  096%=      5-min Rain = 0
KHA2 260450Z 02015KT M02/M03 A3016 RMK A01 T10191025  RH  096%=      5-min Rain = 0
KHA2 260451Z 03016KT M02/M03 A3016 RMK A01 T10201026  RH  096%=      5-min Rain = 0
KHA2 260452Z 03020KT M02/M03 A3016 RMK A01 T10201026  RH  096%=      5-min Rain = 0
KHA2 260453Z 03017KT M02/M03 A3016 RMK A01 T10201027  RH  095%=      5-min Rain = 0
KHA2 260454Z 03017G22KT M02/M03 A3016 RMK A01 T10201026  RH  095%=      5-min Rain = 0
KHA2 260455Z 03021KT M02/M03 A3016 RMK A01 T10201027  RH  095%=      5-min Rain = 0
KHA2 260456Z 03021KT M02/M03 A3015 RMK A01 T10211029  RH  095%=      5-min Rain = 0
KHA2 260457Z 03020KT M02/M03 A3015 RMK A01 T10211029  RH  094%=      5-min Rain = 0
KHA2 260458Z 03018KT M02/M03 A3014 RMK A01 T10211029  RH  094%=      5-min Rain = 0
KHA2 260459Z 03018KT M02/M03 A3014 RMK A01 T10211029  RH  094%=      5-min Rain = 0

Page generated in 0.206 seconds.